<?xml version="1.0" encoding="UTF-8" standalone="no" ?>
<gpx xmlns="http://www.topografix.com/GPX/1/1" xmlns:xsi="http://www.w3.org/2001/XMLSchema-instance" xsi:schemaLocation="http://www.topografix.com/GPX/1/1 http://www.topografix.com/GPX/1/1/gpx.xsd" version="1.1" creator="VisuGPX - https://www.visugpx.com">
  <metadata>
    <name>parcours cyclos du 8/04/2001 g 3</name>
    <desc><![CDATA[Petit parcours adapté au niveau du groupe 3]]></desc>
  </metadata>
  <trk>
    <name><![CDATA[ACTIVE LOG 001]]></name>
    <trkseg>
      <trkpt lat="47.07245" lon="5.49197">
        <ele>197.688232</ele>
        <time>2011-04-08T11:48:19Z</time>
      </trkpt>
      <trkpt lat="47.07232" lon="5.49177">
        <ele>196.726929</ele>
        <time>2011-04-08T11:48:23Z</time>
      </trkpt>
      <trkpt lat="47.07222" lon="5.49141">
        <ele>196.246338</ele>
        <time>2011-04-08T11:48:29Z</time>
      </trkpt>
      <trkpt lat="47.07204" lon="5.49085">
        <ele>195.765625</ele>
        <time>2011-04-08T11:48:41Z</time>
      </trkpt>
      <trkpt lat="47.07171" lon="5.49007">
        <ele>195.284912</ele>
        <time>2011-04-08T11:48:53Z</time>
      </trkpt>
      <trkpt lat="47.07131" lon="5.48943">
        <ele>198.168945</ele>
        <time>2011-04-08T11:49:04Z</time>
      </trkpt>
      <trkpt lat="47.07102" lon="5.48878">
        <ele>201.533569</ele>
        <time>2011-04-08T11:49:14Z</time>
      </trkpt>
      <trkpt lat="47.07042" lon="5.48794">
        <ele>204.41748</ele>
        <time>2011-04-08T11:49:31Z</time>
      </trkpt>
      <trkpt lat="47.06996" lon="5.48746">
        <ele>205.378784</ele>
        <time>2011-04-08T11:49:42Z</time>
      </trkpt>
      <trkpt lat="47.06986" lon="5.48728">
        <ele>204.898071</ele>
        <time>2011-04-08T11:49:45Z</time>
      </trkpt>
      <trkpt lat="47.0697" lon="5.48709">
        <ele>204.898071</ele>
        <time>2011-04-08T11:49:49Z</time>
      </trkpt>
      <trkpt lat="47.06912" lon="5.48701">
        <ele>207.301392</ele>
        <time>2011-04-08T11:50:03Z</time>
      </trkpt>
      <trkpt lat="47.06892" lon="5.48711">
        <ele>207.301392</ele>
        <time>2011-04-08T11:50:08Z</time>
      </trkpt>
      <trkpt lat="47.06813" lon="5.48786">
        <ele>207.782104</ele>
        <time>2011-04-08T11:50:29Z</time>
      </trkpt>
      <trkpt lat="47.0674" lon="5.48853">
        <ele>208.262817</ele>
        <time>2011-04-08T11:50:49Z</time>
      </trkpt>
      <trkpt lat="47.06721" lon="5.48847">
        <ele>208.262817</ele>
        <time>2011-04-08T11:50:54Z</time>
      </trkpt>
      <trkpt lat="47.06659" lon="5.48761">
        <ele>204.898071</ele>
        <time>2011-04-08T11:51:10Z</time>
      </trkpt>
      <trkpt lat="47.06647" lon="5.48737">
        <ele>204.898071</ele>
        <time>2011-04-08T11:51:13Z</time>
      </trkpt>
      <trkpt lat="47.06639" lon="5.487">
        <ele>204.41748</ele>
        <time>2011-04-08T11:51:17Z</time>
      </trkpt>
      <trkpt lat="47.06654" lon="5.48607">
        <ele>204.41748</ele>
        <time>2011-04-08T11:51:29Z</time>
      </trkpt>
      <trkpt lat="47.06665" lon="5.4853">
        <ele>205.859497</ele>
        <time>2011-04-08T11:51:43Z</time>
      </trkpt>
      <trkpt lat="47.06666" lon="5.48495">
        <ele>205.859497</ele>
        <time>2011-04-08T11:51:49Z</time>
      </trkpt>
      <trkpt lat="47.06644" lon="5.4845">
        <ele>205.378784</ele>
        <time>2011-04-08T11:51:59Z</time>
      </trkpt>
      <trkpt lat="47.06596" lon="5.48437">
        <ele>203.93689</ele>
        <time>2011-04-08T11:52:09Z</time>
      </trkpt>
      <trkpt lat="47.06568" lon="5.48396">
        <ele>202.975464</ele>
        <time>2011-04-08T11:52:16Z</time>
      </trkpt>
      <trkpt lat="47.06553" lon="5.48339">
        <ele>203.456177</ele>
        <time>2011-04-08T11:52:23Z</time>
      </trkpt>
      <trkpt lat="47.0654" lon="5.48313">
        <ele>202.975464</ele>
        <time>2011-04-08T11:52:27Z</time>
      </trkpt>
      <trkpt lat="47.06523" lon="5.48296">
        <ele>202.975464</ele>
        <time>2011-04-08T11:52:31Z</time>
      </trkpt>
      <trkpt lat="47.06507" lon="5.48282">
        <ele>202.975464</ele>
        <time>2011-04-08T11:52:35Z</time>
      </trkpt>
      <trkpt lat="47.06488" lon="5.48274">
        <ele>202.975464</ele>
        <time>2011-04-08T11:52:39Z</time>
      </trkpt>
      <trkpt lat="47.06407" lon="5.48251">
        <ele>202.494873</ele>
        <time>2011-04-08T11:52:55Z</time>
      </trkpt>
      <trkpt lat="47.06338" lon="5.4822">
        <ele>199.130127</ele>
        <time>2011-04-08T11:53:06Z</time>
      </trkpt>
      <trkpt lat="47.0623" lon="5.48211">
        <ele>196.246338</ele>
        <time>2011-04-08T11:53:19Z</time>
      </trkpt>
      <trkpt lat="47.06164" lon="5.48245">
        <ele>196.246338</ele>
        <time>2011-04-08T11:53:29Z</time>
      </trkpt>
      <trkpt lat="47.06075" lon="5.4829">
        <ele>194.804321</ele>
        <time>2011-04-08T11:53:44Z</time>
      </trkpt>
      <trkpt lat="47.05969" lon="5.48303">
        <ele>193.843018</ele>
        <time>2011-04-08T11:54:02Z</time>
      </trkpt>
      <trkpt lat="47.05884" lon="5.4834">
        <ele>194.804321</ele>
        <time>2011-04-08T11:54:18Z</time>
      </trkpt>
      <trkpt lat="47.05843" lon="5.48366">
        <ele>194.804321</ele>
        <time>2011-04-08T11:54:26Z</time>
      </trkpt>
      <trkpt lat="47.0577" lon="5.48403">
        <ele>194.804321</ele>
        <time>2011-04-08T11:54:40Z</time>
      </trkpt>
      <trkpt lat="47.05735" lon="5.48382">
        <ele>193.843018</ele>
        <time>2011-04-08T11:54:47Z</time>
      </trkpt>
      <trkpt lat="47.057" lon="5.48319">
        <ele>193.843018</ele>
        <time>2011-04-08T11:54:56Z</time>
      </trkpt>
      <trkpt lat="47.05626" lon="5.48279">
        <ele>193.843018</ele>
        <time>2011-04-08T11:55:10Z</time>
      </trkpt>
      <trkpt lat="47.05549" lon="5.48289">
        <ele>194.804321</ele>
        <time>2011-04-08T11:55:24Z</time>
      </trkpt>
      <trkpt lat="47.0546" lon="5.48326">
        <ele>193.843018</ele>
        <time>2011-04-08T11:55:41Z</time>
      </trkpt>
      <trkpt lat="47.0536" lon="5.48328">
        <ele>193.362305</ele>
        <time>2011-04-08T11:55:59Z</time>
      </trkpt>
      <trkpt lat="47.0527" lon="5.48285">
        <ele>193.362305</ele>
        <time>2011-04-08T11:56:16Z</time>
      </trkpt>
      <trkpt lat="47.05177" lon="5.48186">
        <ele>193.362305</ele>
        <time>2011-04-08T11:56:37Z</time>
      </trkpt>
      <trkpt lat="47.051" lon="5.48038">
        <ele>193.362305</ele>
        <time>2011-04-08T11:57:01Z</time>
      </trkpt>
      <trkpt lat="47.05086" lon="5.47996">
        <ele>193.362305</ele>
        <time>2011-04-08T11:57:07Z</time>
      </trkpt>
      <trkpt lat="47.05069" lon="5.47966">
        <ele>193.362305</ele>
        <time>2011-04-08T11:57:12Z</time>
      </trkpt>
      <trkpt lat="47.04943" lon="5.47863">
        <ele>192.881714</ele>
        <time>2011-04-08T11:57:38Z</time>
      </trkpt>
      <trkpt lat="47.04838" lon="5.47814">
        <ele>192.881714</ele>
        <time>2011-04-08T11:57:58Z</time>
      </trkpt>
      <trkpt lat="47.04686" lon="5.47755">
        <ele>192.401123</ele>
        <time>2011-04-08T11:58:27Z</time>
      </trkpt>
      <trkpt lat="47.04574" lon="5.47645">
        <ele>192.881714</ele>
        <time>2011-04-08T11:58:52Z</time>
      </trkpt>
      <trkpt lat="47.04446" lon="5.47486">
        <ele>193.362305</ele>
        <time>2011-04-08T11:59:23Z</time>
      </trkpt>
      <trkpt lat="47.04333" lon="5.47399">
        <ele>192.881714</ele>
        <time>2011-04-08T11:59:47Z</time>
      </trkpt>
      <trkpt lat="47.04283" lon="5.47361">
        <ele>192.881714</ele>
        <time>2011-04-08T11:59:58Z</time>
      </trkpt>
      <trkpt lat="47.04279" lon="5.47319">
        <ele>193.362305</ele>
        <time>2011-04-08T12:00:05Z</time>
      </trkpt>
      <trkpt lat="47.0429" lon="5.47292">
        <ele>194.804321</ele>
        <time>2011-04-08T12:00:10Z</time>
      </trkpt>
      <trkpt lat="47.04299" lon="5.47254">
        <ele>193.843018</ele>
        <time>2011-04-08T12:00:16Z</time>
      </trkpt>
      <trkpt lat="47.04302" lon="5.472">
        <ele>192.881714</ele>
        <time>2011-04-08T12:00:23Z</time>
      </trkpt>
      <trkpt lat="47.04332" lon="5.47154">
        <ele>192.881714</ele>
        <time>2011-04-08T12:00:32Z</time>
      </trkpt>
      <trkpt lat="47.04342" lon="5.47153">
        <ele>193.362305</ele>
        <time>2011-04-08T12:00:34Z</time>
      </trkpt>
      <trkpt lat="47.04454" lon="5.47128">
        <ele>192.881714</ele>
        <time>2011-04-08T12:00:57Z</time>
      </trkpt>
      <trkpt lat="47.04584" lon="5.47093">
        <ele>192.881714</ele>
        <time>2011-04-08T12:01:22Z</time>
      </trkpt>
      <trkpt lat="47.0466" lon="5.47073">
        <ele>193.843018</ele>
        <time>2011-04-08T12:01:37Z</time>
      </trkpt>
      <trkpt lat="47.04674" lon="5.47068">
        <ele>193.843018</ele>
        <time>2011-04-08T12:01:40Z</time>
      </trkpt>
      <trkpt lat="47.0476" lon="5.47039">
        <ele>192.881714</ele>
        <time>2011-04-08T12:01:58Z</time>
      </trkpt>
      <trkpt lat="47.0477" lon="5.47036">
        <ele>192.881714</ele>
        <time>2011-04-08T12:02:00Z</time>
      </trkpt>
      <trkpt lat="47.04783" lon="5.47031">
        <ele>192.881714</ele>
        <time>2011-04-08T12:02:03Z</time>
      </trkpt>
      <trkpt lat="47.04863" lon="5.47003">
        <ele>194.804321</ele>
        <time>2011-04-08T12:02:22Z</time>
      </trkpt>
      <trkpt lat="47.04871" lon="5.47">
        <ele>193.362305</ele>
        <time>2011-04-08T12:02:24Z</time>
      </trkpt>
      <trkpt lat="47.04891" lon="5.46993">
        <ele>194.32373</ele>
        <time>2011-04-08T12:02:29Z</time>
      </trkpt>
      <trkpt lat="47.04958" lon="5.46968">
        <ele>192.881714</ele>
        <time>2011-04-08T12:02:44Z</time>
      </trkpt>
      <trkpt lat="47.05034" lon="5.4688">
        <ele>192.881714</ele>
        <time>2011-04-08T12:03:05Z</time>
      </trkpt>
      <trkpt lat="47.05131" lon="5.46761">
        <ele>193.362305</ele>
        <time>2011-04-08T12:03:30Z</time>
      </trkpt>
      <trkpt lat="47.05235" lon="5.46639">
        <ele>193.362305</ele>
        <time>2011-04-08T12:03:55Z</time>
      </trkpt>
      <trkpt lat="47.0533" lon="5.46548">
        <ele>193.843018</ele>
        <time>2011-04-08T12:04:16Z</time>
      </trkpt>
      <trkpt lat="47.05389" lon="5.46502">
        <ele>197.20752</ele>
        <time>2011-04-08T12:04:29Z</time>
      </trkpt>
      <trkpt lat="47.05415" lon="5.46477">
        <ele>196.726929</ele>
        <time>2011-04-08T12:04:35Z</time>
      </trkpt>
      <trkpt lat="47.05466" lon="5.46421">
        <ele>197.688232</ele>
        <time>2011-04-08T12:04:51Z</time>
      </trkpt>
      <trkpt lat="47.05526" lon="5.46361">
        <ele>197.20752</ele>
        <time>2011-04-08T12:05:09Z</time>
      </trkpt>
      <trkpt lat="47.05545" lon="5.46343">
        <ele>197.20752</ele>
        <time>2011-04-08T12:05:14Z</time>
      </trkpt>
      <trkpt lat="47.05575" lon="5.4633">
        <ele>196.246338</ele>
        <time>2011-04-08T12:05:21Z</time>
      </trkpt>
      <trkpt lat="47.05603" lon="5.46328">
        <ele>195.284912</ele>
        <time>2011-04-08T12:05:26Z</time>
      </trkpt>
      <trkpt lat="47.05637" lon="5.46327">
        <ele>194.32373</ele>
        <time>2011-04-08T12:05:32Z</time>
      </trkpt>
      <trkpt lat="47.05752" lon="5.46343">
        <ele>193.362305</ele>
        <time>2011-04-08T12:05:55Z</time>
      </trkpt>
      <trkpt lat="47.0585" lon="5.46354">
        <ele>193.843018</ele>
        <time>2011-04-08T12:06:14Z</time>
      </trkpt>
      <trkpt lat="47.05868" lon="5.46344">
        <ele>193.362305</ele>
        <time>2011-04-08T12:06:18Z</time>
      </trkpt>
      <trkpt lat="47.05952" lon="5.46276">
        <ele>193.843018</ele>
        <time>2011-04-08T12:06:38Z</time>
      </trkpt>
      <trkpt lat="47.06046" lon="5.46202">
        <ele>194.804321</ele>
        <time>2011-04-08T12:07:01Z</time>
      </trkpt>
      <trkpt lat="47.06083" lon="5.46145">
        <ele>198.168945</ele>
        <time>2011-04-08T12:07:14Z</time>
      </trkpt>
      <trkpt lat="47.06098" lon="5.46105">
        <ele>199.130127</ele>
        <time>2011-04-08T12:07:24Z</time>
      </trkpt>
      <trkpt lat="47.06093" lon="5.46093">
        <ele>198.168945</ele>
        <time>2011-04-08T12:07:29Z</time>
      </trkpt>
      <trkpt lat="47.06084" lon="5.46085">
        <ele>197.20752</ele>
        <time>2011-04-08T12:07:32Z</time>
      </trkpt>
      <trkpt lat="47.06077" lon="5.46075">
        <ele>195.765625</ele>
        <time>2011-04-08T12:07:34Z</time>
      </trkpt>
      <trkpt lat="47.06063" lon="5.46055">
        <ele>195.765625</ele>
        <time>2011-04-08T12:07:38Z</time>
      </trkpt>
      <trkpt lat="47.06034" lon="5.4597">
        <ele>195.765625</ele>
        <time>2011-04-08T12:07:55Z</time>
      </trkpt>
      <trkpt lat="47.06008" lon="5.45885">
        <ele>194.804321</ele>
        <time>2011-04-08T12:08:11Z</time>
      </trkpt>
      <trkpt lat="47.05952" lon="5.45712">
        <ele>195.765625</ele>
        <time>2011-04-08T12:08:39Z</time>
      </trkpt>
      <trkpt lat="47.05915" lon="5.45596">
        <ele>196.246338</ele>
        <time>2011-04-08T12:08:58Z</time>
      </trkpt>
      <trkpt lat="47.05877" lon="5.45469">
        <ele>197.20752</ele>
        <time>2011-04-08T12:09:17Z</time>
      </trkpt>
      <trkpt lat="47.0587" lon="5.45452">
        <ele>196.246338</ele>
        <time>2011-04-08T12:09:20Z</time>
      </trkpt>
      <trkpt lat="47.05858" lon="5.45414">
        <ele>196.246338</ele>
        <time>2011-04-08T12:09:26Z</time>
      </trkpt>
      <trkpt lat="47.05844" lon="5.45371">
        <ele>196.246338</ele>
        <time>2011-04-08T12:09:33Z</time>
      </trkpt>
      <trkpt lat="47.058" lon="5.45227">
        <ele>196.246338</ele>
        <time>2011-04-08T12:09:54Z</time>
      </trkpt>
      <trkpt lat="47.05737" lon="5.45027">
        <ele>195.765625</ele>
        <time>2011-04-08T12:10:22Z</time>
      </trkpt>
      <trkpt lat="47.05679" lon="5.44839">
        <ele>195.765625</ele>
        <time>2011-04-08T12:10:48Z</time>
      </trkpt>
      <trkpt lat="47.0563" lon="5.44686">
        <ele>195.765625</ele>
        <time>2011-04-08T12:11:11Z</time>
      </trkpt>
      <trkpt lat="47.05583" lon="5.44534">
        <ele>195.284912</ele>
        <time>2011-04-08T12:11:34Z</time>
      </trkpt>
      <trkpt lat="47.05547" lon="5.44407">
        <ele>195.765625</ele>
        <time>2011-04-08T12:11:53Z</time>
      </trkpt>
      <trkpt lat="47.05549" lon="5.44382">
        <ele>195.765625</ele>
        <time>2011-04-08T12:11:57Z</time>
      </trkpt>
      <trkpt lat="47.05554" lon="5.44357">
        <ele>195.765625</ele>
        <time>2011-04-08T12:12:01Z</time>
      </trkpt>
      <trkpt lat="47.05565" lon="5.44335">
        <ele>195.284912</ele>
        <time>2011-04-08T12:12:05Z</time>
      </trkpt>
      <trkpt lat="47.05601" lon="5.44284">
        <ele>195.284912</ele>
        <time>2011-04-08T12:12:16Z</time>
      </trkpt>
      <trkpt lat="47.05627" lon="5.44248">
        <ele>194.804321</ele>
        <time>2011-04-08T12:12:25Z</time>
      </trkpt>
      <trkpt lat="47.05657" lon="5.44198">
        <ele>193.843018</ele>
        <time>2011-04-08T12:12:31Z</time>
      </trkpt>
      <trkpt lat="47.0566" lon="5.44198">
        <ele>193.362305</ele>
        <time>2011-04-08T12:12:32Z</time>
      </trkpt>
      <trkpt lat="47.05671" lon="5.44198">
        <ele>194.32373</ele>
        <time>2011-04-08T12:12:35Z</time>
      </trkpt>
      <trkpt lat="47.05726" lon="5.44136">
        <ele>193.843018</ele>
        <time>2011-04-08T12:12:50Z</time>
      </trkpt>
      <trkpt lat="47.05824" lon="5.44008">
        <ele>193.843018</ele>
        <time>2011-04-08T12:13:16Z</time>
      </trkpt>
      <trkpt lat="47.05839" lon="5.43987">
        <ele>194.32373</ele>
        <time>2011-04-08T12:13:20Z</time>
      </trkpt>
      <trkpt lat="47.05865" lon="5.43956">
        <ele>194.32373</ele>
        <time>2011-04-08T12:13:26Z</time>
      </trkpt>
      <trkpt lat="47.05934" lon="5.43856">
        <ele>194.32373</ele>
        <time>2011-04-08T12:13:44Z</time>
      </trkpt>
      <trkpt lat="47.05963" lon="5.43801">
        <ele>194.804321</ele>
        <time>2011-04-08T12:13:53Z</time>
      </trkpt>
      <trkpt lat="47.05975" lon="5.43715">
        <ele>195.284912</ele>
        <time>2011-04-08T12:14:05Z</time>
      </trkpt>
      <trkpt lat="47.05971" lon="5.4361">
        <ele>194.804321</ele>
        <time>2011-04-08T12:14:18Z</time>
      </trkpt>
      <trkpt lat="47.0597" lon="5.43462">
        <ele>193.843018</ele>
        <time>2011-04-08T12:14:37Z</time>
      </trkpt>
      <trkpt lat="47.05969" lon="5.43294">
        <ele>193.843018</ele>
        <time>2011-04-08T12:15:00Z</time>
      </trkpt>
      <trkpt lat="47.05972" lon="5.43182">
        <ele>194.32373</ele>
        <time>2011-04-08T12:15:15Z</time>
      </trkpt>
      <trkpt lat="47.05973" lon="5.43044">
        <ele>193.362305</ele>
        <time>2011-04-08T12:15:33Z</time>
      </trkpt>
      <trkpt lat="47.05971" lon="5.42977">
        <ele>194.32373</ele>
        <time>2011-04-08T12:15:42Z</time>
      </trkpt>
      <trkpt lat="47.05966" lon="5.42953">
        <ele>193.843018</ele>
        <time>2011-04-08T12:15:46Z</time>
      </trkpt>
      <trkpt lat="47.05972" lon="5.42903">
        <ele>194.32373</ele>
        <time>2011-04-08T12:15:54Z</time>
      </trkpt>
      <trkpt lat="47.05974" lon="5.42788">
        <ele>193.843018</ele>
        <time>2011-04-08T12:16:09Z</time>
      </trkpt>
      <trkpt lat="47.05975" lon="5.42677">
        <ele>195.765625</ele>
        <time>2011-04-08T12:16:25Z</time>
      </trkpt>
      <trkpt lat="47.05976" lon="5.42679">
        <ele>195.765625</ele>
        <time>2011-04-08T12:16:55Z</time>
      </trkpt>
      <trkpt lat="47.0602" lon="5.42676">
        <ele>194.32373</ele>
        <time>2011-04-08T12:17:07Z</time>
      </trkpt>
      <trkpt lat="47.06154" lon="5.42679">
        <ele>192.881714</ele>
        <time>2011-04-08T12:17:33Z</time>
      </trkpt>
      <trkpt lat="47.0626" lon="5.42677">
        <ele>196.246338</ele>
        <time>2011-04-08T12:17:55Z</time>
      </trkpt>
      <trkpt lat="47.06289" lon="5.42665">
        <ele>196.726929</ele>
        <time>2011-04-08T12:18:04Z</time>
      </trkpt>
      <trkpt lat="47.06288" lon="5.42647">
        <ele>196.246338</ele>
        <time>2011-04-08T12:18:08Z</time>
      </trkpt>
      <trkpt lat="47.06265" lon="5.42555">
        <ele>195.284912</ele>
        <time>2011-04-08T12:18:26Z</time>
      </trkpt>
      <trkpt lat="47.06241" lon="5.42457">
        <ele>195.284912</ele>
        <time>2011-04-08T12:18:42Z</time>
      </trkpt>
      <trkpt lat="47.06235" lon="5.42431">
        <ele>195.284912</ele>
        <time>2011-04-08T12:18:46Z</time>
      </trkpt>
      <trkpt lat="47.06204" lon="5.42301">
        <ele>196.246338</ele>
        <time>2011-04-08T12:19:06Z</time>
      </trkpt>
      <trkpt lat="47.06196" lon="5.42281">
        <ele>196.726929</ele>
        <time>2011-04-08T12:19:10Z</time>
      </trkpt>
      <trkpt lat="47.06189" lon="5.42262">
        <ele>196.726929</ele>
        <time>2011-04-08T12:19:14Z</time>
      </trkpt>
      <trkpt lat="47.06185" lon="5.42173">
        <ele>197.688232</ele>
        <time>2011-04-08T12:19:29Z</time>
      </trkpt>
      <trkpt lat="47.06187" lon="5.42129">
        <ele>197.688232</ele>
        <time>2011-04-08T12:19:36Z</time>
      </trkpt>
      <trkpt lat="47.0619" lon="5.42055">
        <ele>197.688232</ele>
        <time>2011-04-08T12:19:47Z</time>
      </trkpt>
      <trkpt lat="47.06189" lon="5.42034">
        <ele>197.688232</ele>
        <time>2011-04-08T12:19:50Z</time>
      </trkpt>
      <trkpt lat="47.06191" lon="5.42006">
        <ele>197.688232</ele>
        <time>2011-04-08T12:19:54Z</time>
      </trkpt>
      <trkpt lat="47.06202" lon="5.4192">
        <ele>200.572266</ele>
        <time>2011-04-08T12:20:05Z</time>
      </trkpt>
      <trkpt lat="47.06216" lon="5.4185">
        <ele>202.014282</ele>
        <time>2011-04-08T12:20:17Z</time>
      </trkpt>
      <trkpt lat="47.06219" lon="5.41832">
        <ele>202.014282</ele>
        <time>2011-04-08T12:20:20Z</time>
      </trkpt>
      <trkpt lat="47.06236" lon="5.41736">
        <ele>203.456177</ele>
        <time>2011-04-08T12:20:37Z</time>
      </trkpt>
      <trkpt lat="47.06256" lon="5.41658">
        <ele>204.41748</ele>
        <time>2011-04-08T12:20:52Z</time>
      </trkpt>
      <trkpt lat="47.06286" lon="5.41588">
        <ele>204.898071</ele>
        <time>2011-04-08T12:21:07Z</time>
      </trkpt>
      <trkpt lat="47.06292" lon="5.41585">
        <ele>204.41748</ele>
        <time>2011-04-08T12:21:22Z</time>
      </trkpt>
      <trkpt lat="47.06312" lon="5.41591">
        <ele>206.340088</ele>
        <time>2011-04-08T12:22:09Z</time>
      </trkpt>
      <trkpt lat="47.06375" lon="5.41604">
        <ele>207.301392</ele>
        <time>2011-04-08T12:22:26Z</time>
      </trkpt>
      <trkpt lat="47.0645" lon="5.41575">
        <ele>208.262817</ele>
        <time>2011-04-08T12:22:45Z</time>
      </trkpt>
      <trkpt lat="47.06487" lon="5.41558">
        <ele>208.743408</ele>
        <time>2011-04-08T12:22:54Z</time>
      </trkpt>
      <trkpt lat="47.06502" lon="5.41551">
        <ele>209.704834</ele>
        <time>2011-04-08T12:22:57Z</time>
      </trkpt>
      <trkpt lat="47.06613" lon="5.41508">
        <ele>208.743408</ele>
        <time>2011-04-08T12:23:20Z</time>
      </trkpt>
      <trkpt lat="47.06668" lon="5.41482">
        <ele>208.743408</ele>
        <time>2011-04-08T12:23:31Z</time>
      </trkpt>
      <trkpt lat="47.06699" lon="5.41477">
        <ele>208.262817</ele>
        <time>2011-04-08T12:23:37Z</time>
      </trkpt>
      <trkpt lat="47.06721" lon="5.41489">
        <ele>208.262817</ele>
        <time>2011-04-08T12:23:42Z</time>
      </trkpt>
      <trkpt lat="47.06745" lon="5.41477">
        <ele>208.262817</ele>
        <time>2011-04-08T12:23:49Z</time>
      </trkpt>
      <trkpt lat="47.06749" lon="5.41466">
        <ele>208.262817</ele>
        <time>2011-04-08T12:23:51Z</time>
      </trkpt>
      <trkpt lat="47.06792" lon="5.41428">
        <ele>208.743408</ele>
        <time>2011-04-08T12:24:03Z</time>
      </trkpt>
      <trkpt lat="47.06903" lon="5.41371">
        <ele>208.743408</ele>
        <time>2011-04-08T12:24:28Z</time>
      </trkpt>
      <trkpt lat="47.06959" lon="5.41342">
        <ele>208.743408</ele>
        <time>2011-04-08T12:24:40Z</time>
      </trkpt>
      <trkpt lat="47.06978" lon="5.41342">
        <ele>208.743408</ele>
        <time>2011-04-08T12:24:44Z</time>
      </trkpt>
      <trkpt lat="47.07004" lon="5.41327">
        <ele>208.262817</ele>
        <time>2011-04-08T12:24:50Z</time>
      </trkpt>
      <trkpt lat="47.07071" lon="5.41283">
        <ele>207.782104</ele>
        <time>2011-04-08T12:25:05Z</time>
      </trkpt>
      <trkpt lat="47.0709" lon="5.41272">
        <ele>207.301392</ele>
        <time>2011-04-08T12:25:09Z</time>
      </trkpt>
      <trkpt lat="47.0712" lon="5.41254">
        <ele>206.340088</ele>
        <time>2011-04-08T12:25:15Z</time>
      </trkpt>
      <trkpt lat="47.07205" lon="5.41234">
        <ele>205.859497</ele>
        <time>2011-04-08T12:25:31Z</time>
      </trkpt>
      <trkpt lat="47.073" lon="5.41286">
        <ele>206.340088</ele>
        <time>2011-04-08T12:25:51Z</time>
      </trkpt>
      <trkpt lat="47.07361" lon="5.41324">
        <ele>207.301392</ele>
        <time>2011-04-08T12:26:05Z</time>
      </trkpt>
      <trkpt lat="47.07386" lon="5.41326">
        <ele>207.782104</ele>
        <time>2011-04-08T12:26:10Z</time>
      </trkpt>
      <trkpt lat="47.07472" lon="5.4128">
        <ele>206.340088</ele>
        <time>2011-04-08T12:26:31Z</time>
      </trkpt>
      <trkpt lat="47.07518" lon="5.41244">
        <ele>205.859497</ele>
        <time>2011-04-08T12:26:45Z</time>
      </trkpt>
      <trkpt lat="47.07534" lon="5.41226">
        <ele>204.41748</ele>
        <time>2011-04-08T12:26:51Z</time>
      </trkpt>
      <trkpt lat="47.07539" lon="5.4121">
        <ele>204.41748</ele>
        <time>2011-04-08T12:26:55Z</time>
      </trkpt>
      <trkpt lat="47.07554" lon="5.41157">
        <ele>202.975464</ele>
        <time>2011-04-08T12:27:09Z</time>
      </trkpt>
      <trkpt lat="47.07554" lon="5.41157">
        <ele>202.014282</ele>
        <time>2011-04-08T12:27:27Z</time>
      </trkpt>
      <trkpt lat="47.07546" lon="5.4113">
        <ele>202.014282</ele>
        <time>2011-04-08T12:27:34Z</time>
      </trkpt>
      <trkpt lat="47.07487" lon="5.41064">
        <ele>199.61084</ele>
        <time>2011-04-08T12:27:49Z</time>
      </trkpt>
      <trkpt lat="47.07464" lon="5.41039">
        <ele>198.168945</ele>
        <time>2011-04-08T12:27:55Z</time>
      </trkpt>
      <trkpt lat="47.07457" lon="5.4101">
        <ele>198.168945</ele>
        <time>2011-04-08T12:27:59Z</time>
      </trkpt>
      <trkpt lat="47.07468" lon="5.40955">
        <ele>197.688232</ele>
        <time>2011-04-08T12:28:06Z</time>
      </trkpt>
      <trkpt lat="47.07478" lon="5.40926">
        <ele>198.168945</ele>
        <time>2011-04-08T12:28:10Z</time>
      </trkpt>
      <trkpt lat="47.07531" lon="5.40831">
        <ele>201.052856</ele>
        <time>2011-04-08T12:28:27Z</time>
      </trkpt>
      <trkpt lat="47.0754" lon="5.40816">
        <ele>201.533569</ele>
        <time>2011-04-08T12:28:30Z</time>
      </trkpt>
      <trkpt lat="47.07558" lon="5.40715">
        <ele>199.61084</ele>
        <time>2011-04-08T12:28:43Z</time>
      </trkpt>
      <trkpt lat="47.07579" lon="5.40547">
        <ele>197.20752</ele>
        <time>2011-04-08T12:29:02Z</time>
      </trkpt>
      <trkpt lat="47.07595" lon="5.40423">
        <ele>200.572266</ele>
        <time>2011-04-08T12:29:18Z</time>
      </trkpt>
      <trkpt lat="47.07601" lon="5.40358">
        <ele>201.533569</ele>
        <time>2011-04-08T12:29:27Z</time>
      </trkpt>
      <trkpt lat="47.07612" lon="5.40257">
        <ele>202.494873</ele>
        <time>2011-04-08T12:29:42Z</time>
      </trkpt>
      <trkpt lat="47.07633" lon="5.40108">
        <ele>202.014282</ele>
        <time>2011-04-08T12:30:02Z</time>
      </trkpt>
      <trkpt lat="47.07643" lon="5.40028">
        <ele>201.052856</ele>
        <time>2011-04-08T12:30:12Z</time>
      </trkpt>
      <trkpt lat="47.07646" lon="5.40013">
        <ele>201.052856</ele>
        <time>2011-04-08T12:30:14Z</time>
      </trkpt>
      <trkpt lat="47.07651" lon="5.39989">
        <ele>200.572266</ele>
        <time>2011-04-08T12:30:17Z</time>
      </trkpt>
      <trkpt lat="47.07656" lon="5.39932">
        <ele>201.052856</ele>
        <time>2011-04-08T12:30:24Z</time>
      </trkpt>
      <trkpt lat="47.07663" lon="5.39884">
        <ele>200.572266</ele>
        <time>2011-04-08T12:30:30Z</time>
      </trkpt>
      <trkpt lat="47.07666" lon="5.39869">
        <ele>200.572266</ele>
        <time>2011-04-08T12:30:32Z</time>
      </trkpt>
      <trkpt lat="47.07683" lon="5.39716">
        <ele>200.572266</ele>
        <time>2011-04-08T12:30:48Z</time>
      </trkpt>
      <trkpt lat="47.07696" lon="5.39628">
        <ele>196.726929</ele>
        <time>2011-04-08T12:30:55Z</time>
      </trkpt>
      <trkpt lat="47.07714" lon="5.39504">
        <ele>193.843018</ele>
        <time>2011-04-08T12:31:06Z</time>
      </trkpt>
      <trkpt lat="47.07733" lon="5.39363">
        <ele>194.32373</ele>
        <time>2011-04-08T12:31:21Z</time>
      </trkpt>
      <trkpt lat="47.07748" lon="5.39218">
        <ele>193.843018</ele>
        <time>2011-04-08T12:31:38Z</time>
      </trkpt>
      <trkpt lat="47.07754" lon="5.3915">
        <ele>193.362305</ele>
        <time>2011-04-08T12:31:46Z</time>
      </trkpt>
      <trkpt lat="47.07755" lon="5.39132">
        <ele>193.362305</ele>
        <time>2011-04-08T12:31:48Z</time>
      </trkpt>
      <trkpt lat="47.07749" lon="5.39098">
        <ele>193.843018</ele>
        <time>2011-04-08T12:31:52Z</time>
      </trkpt>
      <trkpt lat="47.07684" lon="5.38948">
        <ele>191.439575</ele>
        <time>2011-04-08T12:32:12Z</time>
      </trkpt>
      <trkpt lat="47.07621" lon="5.38799">
        <ele>189.997681</ele>
        <time>2011-04-08T12:32:31Z</time>
      </trkpt>
      <trkpt lat="47.07594" lon="5.38653">
        <ele>189.516968</ele>
        <time>2011-04-08T12:32:49Z</time>
      </trkpt>
      <trkpt lat="47.07576" lon="5.38516">
        <ele>189.516968</ele>
        <time>2011-04-08T12:33:06Z</time>
      </trkpt>
      <trkpt lat="47.07565" lon="5.38439">
        <ele>189.516968</ele>
        <time>2011-04-08T12:33:17Z</time>
      </trkpt>
      <trkpt lat="47.07556" lon="5.38379">
        <ele>189.516968</ele>
        <time>2011-04-08T12:33:26Z</time>
      </trkpt>
      <trkpt lat="47.07539" lon="5.38276">
        <ele>189.997681</ele>
        <time>2011-04-08T12:33:42Z</time>
      </trkpt>
      <trkpt lat="47.07517" lon="5.38142">
        <ele>189.997681</ele>
        <time>2011-04-08T12:34:01Z</time>
      </trkpt>
      <trkpt lat="47.07512" lon="5.38105">
        <ele>189.516968</ele>
        <time>2011-04-08T12:34:06Z</time>
      </trkpt>
      <trkpt lat="47.07506" lon="5.38045">
        <ele>190.478394</ele>
        <time>2011-04-08T12:34:14Z</time>
      </trkpt>
      <trkpt lat="47.07501" lon="5.37913">
        <ele>189.997681</ele>
        <time>2011-04-08T12:34:32Z</time>
      </trkpt>
      <trkpt lat="47.07494" lon="5.3777">
        <ele>190.478394</ele>
        <time>2011-04-08T12:34:52Z</time>
      </trkpt>
      <trkpt lat="47.07474" lon="5.376">
        <ele>189.997681</ele>
        <time>2011-04-08T12:35:13Z</time>
      </trkpt>
      <trkpt lat="47.07457" lon="5.37433">
        <ele>190.478394</ele>
        <time>2011-04-08T12:35:35Z</time>
      </trkpt>
      <trkpt lat="47.07419" lon="5.37291">
        <ele>189.516968</ele>
        <time>2011-04-08T12:35:54Z</time>
      </trkpt>
      <trkpt lat="47.07405" lon="5.3726">
        <ele>189.516968</ele>
        <time>2011-04-08T12:35:59Z</time>
      </trkpt>
      <trkpt lat="47.07394" lon="5.37244">
        <ele>190.478394</ele>
        <time>2011-04-08T12:36:02Z</time>
      </trkpt>
      <trkpt lat="47.07383" lon="5.37227">
        <ele>189.516968</ele>
        <time>2011-04-08T12:36:05Z</time>
      </trkpt>
      <trkpt lat="47.07322" lon="5.37136">
        <ele>189.997681</ele>
        <time>2011-04-08T12:36:18Z</time>
      </trkpt>
      <trkpt lat="47.07224" lon="5.37059">
        <ele>188.555786</ele>
        <time>2011-04-08T12:36:38Z</time>
      </trkpt>
      <trkpt lat="47.07145" lon="5.37004">
        <ele>191.920288</ele>
        <time>2011-04-08T12:36:54Z</time>
      </trkpt>
      <trkpt lat="47.07141" lon="5.37001">
        <ele>191.439575</ele>
        <time>2011-04-08T12:36:55Z</time>
      </trkpt>
      <trkpt lat="47.07062" lon="5.36944">
        <ele>189.516968</ele>
        <time>2011-04-08T12:37:10Z</time>
      </trkpt>
      <trkpt lat="47.0703" lon="5.3692">
        <ele>189.036377</ele>
        <time>2011-04-08T12:37:16Z</time>
      </trkpt>
      <trkpt lat="47.07019" lon="5.36883">
        <ele>189.516968</ele>
        <time>2011-04-08T12:37:21Z</time>
      </trkpt>
      <trkpt lat="47.07023" lon="5.36861">
        <ele>189.036377</ele>
        <time>2011-04-08T12:37:24Z</time>
      </trkpt>
      <trkpt lat="47.07069" lon="5.36736">
        <ele>188.075073</ele>
        <time>2011-04-08T12:37:43Z</time>
      </trkpt>
      <trkpt lat="47.07114" lon="5.36581">
        <ele>188.555786</ele>
        <time>2011-04-08T12:38:05Z</time>
      </trkpt>
      <trkpt lat="47.07166" lon="5.36431">
        <ele>188.555786</ele>
        <time>2011-04-08T12:38:27Z</time>
      </trkpt>
      <trkpt lat="47.07191" lon="5.36346">
        <ele>189.036377</ele>
        <time>2011-04-08T12:38:40Z</time>
      </trkpt>
      <trkpt lat="47.07255" lon="5.36266">
        <ele>189.516968</ele>
        <time>2011-04-08T12:38:57Z</time>
      </trkpt>
      <trkpt lat="47.07266" lon="5.36251">
        <ele>189.036377</ele>
        <time>2011-04-08T12:39:00Z</time>
      </trkpt>
      <trkpt lat="47.0733" lon="5.36162">
        <ele>189.036377</ele>
        <time>2011-04-08T12:39:20Z</time>
      </trkpt>
      <trkpt lat="47.0735" lon="5.36125">
        <ele>188.555786</ele>
        <time>2011-04-08T12:39:27Z</time>
      </trkpt>
      <trkpt lat="47.07393" lon="5.35992">
        <ele>189.036377</ele>
        <time>2011-04-08T12:39:48Z</time>
      </trkpt>
      <trkpt lat="47.07404" lon="5.35961">
        <ele>188.555786</ele>
        <time>2011-04-08T12:39:53Z</time>
      </trkpt>
      <trkpt lat="47.07459" lon="5.35895">
        <ele>188.555786</ele>
        <time>2011-04-08T12:40:08Z</time>
      </trkpt>
      <trkpt lat="47.07483" lon="5.35873">
        <ele>188.075073</ele>
        <time>2011-04-08T12:40:14Z</time>
      </trkpt>
      <trkpt lat="47.07582" lon="5.35822">
        <ele>189.036377</ele>
        <time>2011-04-08T12:40:37Z</time>
      </trkpt>
      <trkpt lat="47.07689" lon="5.35789">
        <ele>188.555786</ele>
        <time>2011-04-08T12:41:01Z</time>
      </trkpt>
      <trkpt lat="47.078" lon="5.35752">
        <ele>187.11377</ele>
        <time>2011-04-08T12:41:24Z</time>
      </trkpt>
      <trkpt lat="47.07917" lon="5.35711">
        <ele>187.11377</ele>
        <time>2011-04-08T12:41:48Z</time>
      </trkpt>
      <trkpt lat="47.07946" lon="5.35701">
        <ele>187.11377</ele>
        <time>2011-04-08T12:41:54Z</time>
      </trkpt>
      <trkpt lat="47.07955" lon="5.35697">
        <ele>187.11377</ele>
        <time>2011-04-08T12:41:56Z</time>
      </trkpt>
      <trkpt lat="47.08053" lon="5.35664">
        <ele>189.036377</ele>
        <time>2011-04-08T12:42:18Z</time>
      </trkpt>
      <trkpt lat="47.08186" lon="5.3562">
        <ele>188.555786</ele>
        <time>2011-04-08T12:42:47Z</time>
      </trkpt>
      <trkpt lat="47.08256" lon="5.35597">
        <ele>188.555786</ele>
        <time>2011-04-08T12:43:02Z</time>
      </trkpt>
      <trkpt lat="47.08299" lon="5.35585">
        <ele>188.075073</ele>
        <time>2011-04-08T12:43:12Z</time>
      </trkpt>
      <trkpt lat="47.08308" lon="5.35585">
        <ele>188.555786</ele>
        <time>2011-04-08T12:43:14Z</time>
      </trkpt>
      <trkpt lat="47.08379" lon="5.35609">
        <ele>190.958984</ele>
        <time>2011-04-08T12:43:32Z</time>
      </trkpt>
      <trkpt lat="47.08442" lon="5.35654">
        <ele>189.036377</ele>
        <time>2011-04-08T12:43:46Z</time>
      </trkpt>
      <trkpt lat="47.08493" lon="5.35696">
        <ele>186.633179</ele>
        <time>2011-04-08T12:43:55Z</time>
      </trkpt>
      <trkpt lat="47.08512" lon="5.35708">
        <ele>186.633179</ele>
        <time>2011-04-08T12:43:59Z</time>
      </trkpt>
      <trkpt lat="47.08554" lon="5.35738">
        <ele>188.075073</ele>
        <time>2011-04-08T12:44:14Z</time>
      </trkpt>
      <trkpt lat="47.08601" lon="5.3577">
        <ele>189.036377</ele>
        <time>2011-04-08T12:44:30Z</time>
      </trkpt>
      <trkpt lat="47.08623" lon="5.35785">
        <ele>188.555786</ele>
        <time>2011-04-08T12:44:44Z</time>
      </trkpt>
      <trkpt lat="47.08622" lon="5.3578">
        <ele>189.036377</ele>
        <time>2011-04-08T12:44:49Z</time>
      </trkpt>
      <trkpt lat="47.08564" lon="5.35742">
        <ele>188.075073</ele>
        <time>2011-04-08T12:45:03Z</time>
      </trkpt>
      <trkpt lat="47.08472" lon="5.3567">
        <ele>186.152466</ele>
        <time>2011-04-08T12:45:21Z</time>
      </trkpt>
      <trkpt lat="47.08438" lon="5.35645">
        <ele>187.59436</ele>
        <time>2011-04-08T12:45:31Z</time>
      </trkpt>
      <trkpt lat="47.08475" lon="5.35679">
        <ele>187.11377</ele>
        <time>2011-04-08T12:45:41Z</time>
      </trkpt>
      <trkpt lat="47.08599" lon="5.35772">
        <ele>189.036377</ele>
        <time>2011-04-08T12:46:05Z</time>
      </trkpt>
      <trkpt lat="47.08632" lon="5.35786">
        <ele>189.036377</ele>
        <time>2011-04-08T12:46:15Z</time>
      </trkpt>
      <trkpt lat="47.08636" lon="5.35789">
        <ele>189.036377</ele>
        <time>2011-04-08T12:46:30Z</time>
      </trkpt>
      <trkpt lat="47.08637" lon="5.35789">
        <ele>189.516968</ele>
        <time>2011-04-08T12:47:27Z</time>
      </trkpt>
      <trkpt lat="47.08667" lon="5.35801">
        <ele>189.997681</ele>
        <time>2011-04-08T12:47:41Z</time>
      </trkpt>
      <trkpt lat="47.08731" lon="5.35838">
        <ele>192.881714</ele>
        <time>2011-04-08T12:48:01Z</time>
      </trkpt>
      <trkpt lat="47.08804" lon="5.35892">
        <ele>194.804321</ele>
        <time>2011-04-08T12:48:23Z</time>
      </trkpt>
      <trkpt lat="47.08906" lon="5.35967">
        <ele>197.20752</ele>
        <time>2011-04-08T12:48:52Z</time>
      </trkpt>
      <trkpt lat="47.08968" lon="5.36021">
        <ele>197.688232</ele>
        <time>2011-04-08T12:49:11Z</time>
      </trkpt>
      <trkpt lat="47.09019" lon="5.36064">
        <ele>198.168945</ele>
        <time>2011-04-08T12:49:25Z</time>
      </trkpt>
      <trkpt lat="47.09101" lon="5.36129">
        <ele>198.649536</ele>
        <time>2011-04-08T12:49:48Z</time>
      </trkpt>
      <trkpt lat="47.09132" lon="5.36147">
        <ele>198.649536</ele>
        <time>2011-04-08T12:49:56Z</time>
      </trkpt>
      <trkpt lat="47.09182" lon="5.36173">
        <ele>199.130127</ele>
        <time>2011-04-08T12:50:09Z</time>
      </trkpt>
      <trkpt lat="47.0921" lon="5.36189">
        <ele>198.168945</ele>
        <time>2011-04-08T12:50:16Z</time>
      </trkpt>
      <trkpt lat="47.09251" lon="5.36187">
        <ele>199.130127</ele>
        <time>2011-04-08T12:50:30Z</time>
      </trkpt>
      <trkpt lat="47.09281" lon="5.36153">
        <ele>198.168945</ele>
        <time>2011-04-08T12:50:41Z</time>
      </trkpt>
      <trkpt lat="47.09326" lon="5.36072">
        <ele>194.32373</ele>
        <time>2011-04-08T12:50:54Z</time>
      </trkpt>
      <trkpt lat="47.09366" lon="5.36008">
        <ele>191.439575</ele>
        <time>2011-04-08T12:51:02Z</time>
      </trkpt>
      <trkpt lat="47.09382" lon="5.35986">
        <ele>191.439575</ele>
        <time>2011-04-08T12:51:05Z</time>
      </trkpt>
      <trkpt lat="47.09399" lon="5.35956">
        <ele>190.478394</ele>
        <time>2011-04-08T12:51:09Z</time>
      </trkpt>
      <trkpt lat="47.0942" lon="5.35898">
        <ele>189.997681</ele>
        <time>2011-04-08T12:51:17Z</time>
      </trkpt>
      <trkpt lat="47.09472" lon="5.35794">
        <ele>192.401123</ele>
        <time>2011-04-08T12:51:36Z</time>
      </trkpt>
      <trkpt lat="47.09519" lon="5.35742">
        <ele>196.246338</ele>
        <time>2011-04-08T12:51:51Z</time>
      </trkpt>
      <trkpt lat="47.09536" lon="5.35728">
        <ele>197.20752</ele>
        <time>2011-04-08T12:51:56Z</time>
      </trkpt>
      <trkpt lat="47.09577" lon="5.3569">
        <ele>200.091675</ele>
        <time>2011-04-08T12:52:12Z</time>
      </trkpt>
      <trkpt lat="47.09608" lon="5.35662">
        <ele>201.533569</ele>
        <time>2011-04-08T12:52:25Z</time>
      </trkpt>
      <trkpt lat="47.09653" lon="5.35624">
        <ele>203.456177</ele>
        <time>2011-04-08T12:52:44Z</time>
      </trkpt>
      <trkpt lat="47.09709" lon="5.35573">
        <ele>202.975464</ele>
        <time>2011-04-08T12:53:07Z</time>
      </trkpt>
      <trkpt lat="47.0975" lon="5.35537">
        <ele>202.014282</ele>
        <time>2011-04-08T12:53:21Z</time>
      </trkpt>
      <trkpt lat="47.09769" lon="5.35519">
        <ele>201.533569</ele>
        <time>2011-04-08T12:53:26Z</time>
      </trkpt>
      <trkpt lat="47.09842" lon="5.35458">
        <ele>197.20752</ele>
        <time>2011-04-08T12:53:40Z</time>
      </trkpt>
      <trkpt lat="47.09875" lon="5.35438">
        <ele>196.246338</ele>
        <time>2011-04-08T12:53:46Z</time>
      </trkpt>
      <trkpt lat="47.09889" lon="5.35431">
        <ele>195.765625</ele>
        <time>2011-04-08T12:53:49Z</time>
      </trkpt>
      <trkpt lat="47.09935" lon="5.35401">
        <ele>196.246338</ele>
        <time>2011-04-08T12:54:04Z</time>
      </trkpt>
      <trkpt lat="47.09973" lon="5.35372">
        <ele>195.765625</ele>
        <time>2011-04-08T12:54:17Z</time>
      </trkpt>
      <trkpt lat="47.10066" lon="5.35352">
        <ele>194.804321</ele>
        <time>2011-04-08T12:54:38Z</time>
      </trkpt>
      <trkpt lat="47.10187" lon="5.35363">
        <ele>196.246338</ele>
        <time>2011-04-08T12:55:06Z</time>
      </trkpt>
      <trkpt lat="47.1021" lon="5.35366">
        <ele>196.246338</ele>
        <time>2011-04-08T12:55:11Z</time>
      </trkpt>
      <trkpt lat="47.10228" lon="5.35361">
        <ele>196.246338</ele>
        <time>2011-04-08T12:55:15Z</time>
      </trkpt>
      <trkpt lat="47.1031" lon="5.35285">
        <ele>194.32373</ele>
        <time>2011-04-08T12:55:35Z</time>
      </trkpt>
      <trkpt lat="47.10323" lon="5.35273">
        <ele>193.843018</ele>
        <time>2011-04-08T12:55:38Z</time>
      </trkpt>
      <trkpt lat="47.10342" lon="5.35265">
        <ele>193.843018</ele>
        <time>2011-04-08T12:55:42Z</time>
      </trkpt>
      <trkpt lat="47.10366" lon="5.35268">
        <ele>194.804321</ele>
        <time>2011-04-08T12:55:47Z</time>
      </trkpt>
      <trkpt lat="47.10422" lon="5.35326">
        <ele>196.726929</ele>
        <time>2011-04-08T12:56:05Z</time>
      </trkpt>
      <trkpt lat="47.10454" lon="5.35352">
        <ele>198.649536</ele>
        <time>2011-04-08T12:56:17Z</time>
      </trkpt>
      <trkpt lat="47.10514" lon="5.3537">
        <ele>198.168945</ele>
        <time>2011-04-08T12:56:33Z</time>
      </trkpt>
      <trkpt lat="47.10544" lon="5.35352">
        <ele>197.20752</ele>
        <time>2011-04-08T12:56:41Z</time>
      </trkpt>
      <trkpt lat="47.1055" lon="5.35342">
        <ele>197.20752</ele>
        <time>2011-04-08T12:56:43Z</time>
      </trkpt>
      <trkpt lat="47.10597" lon="5.35232">
        <ele>196.726929</ele>
        <time>2011-04-08T12:57:04Z</time>
      </trkpt>
      <trkpt lat="47.10628" lon="5.35155">
        <ele>195.284912</ele>
        <time>2011-04-08T12:57:18Z</time>
      </trkpt>
      <trkpt lat="47.1066" lon="5.35039">
        <ele>191.920288</ele>
        <time>2011-04-08T12:57:31Z</time>
      </trkpt>
      <trkpt lat="47.10694" lon="5.34882">
        <ele>189.036377</ele>
        <time>2011-04-08T12:57:46Z</time>
      </trkpt>
      <trkpt lat="47.10736" lon="5.34724">
        <ele>187.59436</ele>
        <time>2011-04-08T12:58:05Z</time>
      </trkpt>
      <trkpt lat="47.10764" lon="5.34648">
        <ele>187.11377</ele>
        <time>2011-04-08T12:58:17Z</time>
      </trkpt>
      <trkpt lat="47.10809" lon="5.34561">
        <ele>188.075073</ele>
        <time>2011-04-08T12:58:33Z</time>
      </trkpt>
      <trkpt lat="47.10904" lon="5.3447">
        <ele>189.036377</ele>
        <time>2011-04-08T12:58:57Z</time>
      </trkpt>
      <trkpt lat="47.10971" lon="5.34382">
        <ele>189.516968</ele>
        <time>2011-04-08T12:59:18Z</time>
      </trkpt>
      <trkpt lat="47.11" lon="5.34319">
        <ele>190.958984</ele>
        <time>2011-04-08T12:59:32Z</time>
      </trkpt>
      <trkpt lat="47.11006" lon="5.34307">
        <ele>192.401123</ele>
        <time>2011-04-08T12:59:35Z</time>
      </trkpt>
      <trkpt lat="47.11066" lon="5.34235">
        <ele>193.362305</ele>
        <time>2011-04-08T12:59:56Z</time>
      </trkpt>
      <trkpt lat="47.11125" lon="5.3419">
        <ele>195.284912</ele>
        <time>2011-04-08T13:00:14Z</time>
      </trkpt>
      <trkpt lat="47.11177" lon="5.34147">
        <ele>195.765625</ele>
        <time>2011-04-08T13:00:32Z</time>
      </trkpt>
      <trkpt lat="47.11194" lon="5.34154">
        <ele>195.284912</ele>
        <time>2011-04-08T13:00:44Z</time>
      </trkpt>
      <trkpt lat="47.11198" lon="5.34164">
        <ele>194.804321</ele>
        <time>2011-04-08T13:01:00Z</time>
      </trkpt>
      <trkpt lat="47.11204" lon="5.34181">
        <ele>195.284912</ele>
        <time>2011-04-08T13:02:19Z</time>
      </trkpt>
      <trkpt lat="47.1122" lon="5.34258">
        <ele>193.843018</ele>
        <time>2011-04-08T13:02:34Z</time>
      </trkpt>
      <trkpt lat="47.11246" lon="5.34405">
        <ele>193.843018</ele>
        <time>2011-04-08T13:02:56Z</time>
      </trkpt>
      <trkpt lat="47.11279" lon="5.34542">
        <ele>195.765625</ele>
        <time>2011-04-08T13:03:18Z</time>
      </trkpt>
      <trkpt lat="47.11313" lon="5.34693">
        <ele>196.726929</ele>
        <time>2011-04-08T13:03:42Z</time>
      </trkpt>
      <trkpt lat="47.11342" lon="5.34786">
        <ele>198.168945</ele>
        <time>2011-04-08T13:03:58Z</time>
      </trkpt>
      <trkpt lat="47.114" lon="5.34902">
        <ele>199.61084</ele>
        <time>2011-04-08T13:04:22Z</time>
      </trkpt>
      <trkpt lat="47.11472" lon="5.35055">
        <ele>199.61084</ele>
        <time>2011-04-08T13:04:51Z</time>
      </trkpt>
      <trkpt lat="47.11534" lon="5.35235">
        <ele>199.61084</ele>
        <time>2011-04-08T13:05:20Z</time>
      </trkpt>
      <trkpt lat="47.11574" lon="5.35379">
        <ele>200.091675</ele>
        <time>2011-04-08T13:05:43Z</time>
      </trkpt>
      <trkpt lat="47.11636" lon="5.3551">
        <ele>199.61084</ele>
        <time>2011-04-08T13:06:04Z</time>
      </trkpt>
      <trkpt lat="47.11705" lon="5.35711">
        <ele>198.168945</ele>
        <time>2011-04-08T13:06:35Z</time>
      </trkpt>
      <trkpt lat="47.11768" lon="5.3592">
        <ele>196.246338</ele>
        <time>2011-04-08T13:07:05Z</time>
      </trkpt>
      <trkpt lat="47.11771" lon="5.35966">
        <ele>195.284912</ele>
        <time>2011-04-08T13:07:10Z</time>
      </trkpt>
      <trkpt lat="47.11768" lon="5.35984">
        <ele>195.284912</ele>
        <time>2011-04-08T13:07:12Z</time>
      </trkpt>
      <trkpt lat="47.11769" lon="5.36018">
        <ele>195.284912</ele>
        <time>2011-04-08T13:07:16Z</time>
      </trkpt>
      <trkpt lat="47.11802" lon="5.36135">
        <ele>191.920288</ele>
        <time>2011-04-08T13:07:32Z</time>
      </trkpt>
      <trkpt lat="47.11853" lon="5.36306">
        <ele>193.362305</ele>
        <time>2011-04-08T13:07:56Z</time>
      </trkpt>
      <trkpt lat="47.11877" lon="5.36361">
        <ele>194.804321</ele>
        <time>2011-04-08T13:08:06Z</time>
      </trkpt>
      <trkpt lat="47.11953" lon="5.36436">
        <ele>197.688232</ele>
        <time>2011-04-08T13:08:27Z</time>
      </trkpt>
      <trkpt lat="47.12002" lon="5.36504">
        <ele>198.168945</ele>
        <time>2011-04-08T13:08:45Z</time>
      </trkpt>
      <trkpt lat="47.12024" lon="5.36538">
        <ele>197.20752</ele>
        <time>2011-04-08T13:08:53Z</time>
      </trkpt>
      <trkpt lat="47.12066" lon="5.36604">
        <ele>193.843018</ele>
        <time>2011-04-08T13:09:04Z</time>
      </trkpt>
      <trkpt lat="47.12109" lon="5.36702">
        <ele>191.920288</ele>
        <time>2011-04-08T13:09:16Z</time>
      </trkpt>
      <trkpt lat="47.12122" lon="5.3675">
        <ele>191.439575</ele>
        <time>2011-04-08T13:09:22Z</time>
      </trkpt>
      <trkpt lat="47.12121" lon="5.36819">
        <ele>191.439575</ele>
        <time>2011-04-08T13:09:35Z</time>
      </trkpt>
      <trkpt lat="47.1212" lon="5.36844">
        <ele>191.920288</ele>
        <time>2011-04-08T13:09:49Z</time>
      </trkpt>
      <trkpt lat="47.12118" lon="5.36846">
        <ele>192.401123</ele>
        <time>2011-04-08T13:10:32Z</time>
      </trkpt>
      <trkpt lat="47.12119" lon="5.36856">
        <ele>191.920288</ele>
        <time>2011-04-08T13:10:36Z</time>
      </trkpt>
      <trkpt lat="47.12126" lon="5.36912">
        <ele>195.284912</ele>
        <time>2011-04-08T13:10:50Z</time>
      </trkpt>
      <trkpt lat="47.12145" lon="5.36996">
        <ele>197.20752</ele>
        <time>2011-04-08T13:11:08Z</time>
      </trkpt>
      <trkpt lat="47.1216" lon="5.37075">
        <ele>198.168945</ele>
        <time>2011-04-08T13:11:25Z</time>
      </trkpt>
      <trkpt lat="47.12193" lon="5.3713">
        <ele>197.20752</ele>
        <time>2011-04-08T13:11:39Z</time>
      </trkpt>
      <trkpt lat="47.12253" lon="5.37188">
        <ele>197.688232</ele>
        <time>2011-04-08T13:11:57Z</time>
      </trkpt>
      <trkpt lat="47.12322" lon="5.37308">
        <ele>200.572266</ele>
        <time>2011-04-08T13:12:23Z</time>
      </trkpt>
      <trkpt lat="47.12374" lon="5.37438">
        <ele>202.014282</ele>
        <time>2011-04-08T13:12:49Z</time>
      </trkpt>
      <trkpt lat="47.12448" lon="5.37529">
        <ele>202.975464</ele>
        <time>2011-04-08T13:13:10Z</time>
      </trkpt>
      <trkpt lat="47.12481" lon="5.37548">
        <ele>202.494873</ele>
        <time>2011-04-08T13:13:23Z</time>
      </trkpt>
      <trkpt lat="47.12513" lon="5.37555">
        <ele>202.494873</ele>
        <time>2011-04-08T13:13:38Z</time>
      </trkpt>
      <trkpt lat="47.1255" lon="5.37563">
        <ele>202.975464</ele>
        <time>2011-04-08T13:13:52Z</time>
      </trkpt>
      <trkpt lat="47.12572" lon="5.37565">
        <ele>202.494873</ele>
        <time>2011-04-08T13:13:58Z</time>
      </trkpt>
      <trkpt lat="47.1258" lon="5.37566">
        <ele>204.41748</ele>
        <time>2011-04-08T13:14:00Z</time>
      </trkpt>
      <trkpt lat="47.12585" lon="5.37567">
        <ele>204.898071</ele>
        <time>2011-04-08T13:14:01Z</time>
      </trkpt>
      <trkpt lat="47.12598" lon="5.37568">
        <ele>204.41748</ele>
        <time>2011-04-08T13:14:04Z</time>
      </trkpt>
      <trkpt lat="47.12607" lon="5.37569">
        <ele>203.456177</ele>
        <time>2011-04-08T13:14:06Z</time>
      </trkpt>
      <trkpt lat="47.1268" lon="5.37578">
        <ele>202.975464</ele>
        <time>2011-04-08T13:14:24Z</time>
      </trkpt>
      <trkpt lat="47.12772" lon="5.376">
        <ele>202.014282</ele>
        <time>2011-04-08T13:14:45Z</time>
      </trkpt>
      <trkpt lat="47.12835" lon="5.37633">
        <ele>202.014282</ele>
        <time>2011-04-08T13:14:59Z</time>
      </trkpt>
      <trkpt lat="47.12941" lon="5.37694">
        <ele>201.052856</ele>
        <time>2011-04-08T13:15:24Z</time>
      </trkpt>
      <trkpt lat="47.12963" lon="5.37707">
        <ele>200.572266</ele>
        <time>2011-04-08T13:15:29Z</time>
      </trkpt>
      <trkpt lat="47.13046" lon="5.37752">
        <ele>198.168945</ele>
        <time>2011-04-08T13:15:44Z</time>
      </trkpt>
      <trkpt lat="47.13104" lon="5.37787">
        <ele>195.284912</ele>
        <time>2011-04-08T13:15:52Z</time>
      </trkpt>
      <trkpt lat="47.13225" lon="5.37857">
        <ele>195.284912</ele>
        <time>2011-04-08T13:16:10Z</time>
      </trkpt>
      <trkpt lat="47.13332" lon="5.37919">
        <ele>193.843018</ele>
        <time>2011-04-08T13:16:31Z</time>
      </trkpt>
      <trkpt lat="47.13415" lon="5.37963">
        <ele>191.439575</ele>
        <time>2011-04-08T13:16:46Z</time>
      </trkpt>
      <trkpt lat="47.13485" lon="5.38004">
        <ele>189.516968</ele>
        <time>2011-04-08T13:16:58Z</time>
      </trkpt>
      <trkpt lat="47.13589" lon="5.38066">
        <ele>188.075073</ele>
        <time>2011-04-08T13:17:17Z</time>
      </trkpt>
      <trkpt lat="47.13609" lon="5.38076">
        <ele>188.075073</ele>
        <time>2011-04-08T13:17:21Z</time>
      </trkpt>
      <trkpt lat="47.13687" lon="5.38133">
        <ele>191.439575</ele>
        <time>2011-04-08T13:17:40Z</time>
      </trkpt>
      <trkpt lat="47.1376" lon="5.38183">
        <ele>193.362305</ele>
        <time>2011-04-08T13:18:00Z</time>
      </trkpt>
      <trkpt lat="47.13846" lon="5.38238">
        <ele>195.765625</ele>
        <time>2011-04-08T13:18:24Z</time>
      </trkpt>
      <trkpt lat="47.13853" lon="5.38244">
        <ele>195.765625</ele>
        <time>2011-04-08T13:18:26Z</time>
      </trkpt>
      <trkpt lat="47.13911" lon="5.38295">
        <ele>198.168945</ele>
        <time>2011-04-08T13:18:43Z</time>
      </trkpt>
      <trkpt lat="47.13978" lon="5.3838">
        <ele>200.091675</ele>
        <time>2011-04-08T13:19:05Z</time>
      </trkpt>
      <trkpt lat="47.14069" lon="5.3848">
        <ele>201.052856</ele>
        <time>2011-04-08T13:19:31Z</time>
      </trkpt>
      <trkpt lat="47.14126" lon="5.38528">
        <ele>201.052856</ele>
        <time>2011-04-08T13:19:48Z</time>
      </trkpt>
      <trkpt lat="47.14155" lon="5.38545">
        <ele>199.61084</ele>
        <time>2011-04-08T13:19:57Z</time>
      </trkpt>
      <trkpt lat="47.14155" lon="5.3854">
        <ele>199.61084</ele>
        <time>2011-04-08T13:20:01Z</time>
      </trkpt>
      <trkpt lat="47.14132" lon="5.38528">
        <ele>199.61084</ele>
        <time>2011-04-08T13:20:13Z</time>
      </trkpt>
      <trkpt lat="47.14134" lon="5.38534">
        <ele>201.533569</ele>
        <time>2011-04-08T13:20:17Z</time>
      </trkpt>
      <trkpt lat="47.1418" lon="5.38561">
        <ele>199.130127</ele>
        <time>2011-04-08T13:20:30Z</time>
      </trkpt>
      <trkpt lat="47.1424" lon="5.38598">
        <ele>196.246338</ele>
        <time>2011-04-08T13:20:41Z</time>
      </trkpt>
      <trkpt lat="47.14318" lon="5.38648">
        <ele>192.881714</ele>
        <time>2011-04-08T13:20:53Z</time>
      </trkpt>
      <trkpt lat="47.14451" lon="5.38732">
        <ele>190.478394</ele>
        <time>2011-04-08T13:21:16Z</time>
      </trkpt>
      <trkpt lat="47.14559" lon="5.38799">
        <ele>189.516968</ele>
        <time>2011-04-08T13:21:36Z</time>
      </trkpt>
      <trkpt lat="47.14614" lon="5.38856">
        <ele>189.036377</ele>
        <time>2011-04-08T13:21:50Z</time>
      </trkpt>
      <trkpt lat="47.14641" lon="5.38876">
        <ele>189.036377</ele>
        <time>2011-04-08T13:22:03Z</time>
      </trkpt>
      <trkpt lat="47.14637" lon="5.38876">
        <ele>188.075073</ele>
        <time>2011-04-08T13:22:50Z</time>
      </trkpt>
      <trkpt lat="47.14639" lon="5.38875">
        <ele>188.555786</ele>
        <time>2011-04-08T13:23:20Z</time>
      </trkpt>
      <trkpt lat="47.14669" lon="5.38887">
        <ele>188.555786</ele>
        <time>2011-04-08T13:23:34Z</time>
      </trkpt>
      <trkpt lat="47.14703" lon="5.38954">
        <ele>188.555786</ele>
        <time>2011-04-08T13:23:50Z</time>
      </trkpt>
      <trkpt lat="47.1472" lon="5.39018">
        <ele>189.036377</ele>
        <time>2011-04-08T13:24:05Z</time>
      </trkpt>
      <trkpt lat="47.14716" lon="5.3909">
        <ele>190.478394</ele>
        <time>2011-04-08T13:24:20Z</time>
      </trkpt>
      <trkpt lat="47.14684" lon="5.39145">
        <ele>192.401123</ele>
        <time>2011-04-08T13:24:36Z</time>
      </trkpt>
      <trkpt lat="47.14649" lon="5.39172">
        <ele>194.804321</ele>
        <time>2011-04-08T13:24:52Z</time>
      </trkpt>
      <trkpt lat="47.14603" lon="5.3919">
        <ele>197.688232</ele>
        <time>2011-04-08T13:25:08Z</time>
      </trkpt>
      <trkpt lat="47.14591" lon="5.39194">
        <ele>198.168945</ele>
        <time>2011-04-08T13:25:13Z</time>
      </trkpt>
      <trkpt lat="47.14586" lon="5.39198">
        <ele>198.649536</ele>
        <time>2011-04-08T13:25:16Z</time>
      </trkpt>
      <trkpt lat="47.14531" lon="5.39218">
        <ele>201.533569</ele>
        <time>2011-04-08T13:25:36Z</time>
      </trkpt>
      <trkpt lat="47.14501" lon="5.39225">
        <ele>202.494873</ele>
        <time>2011-04-08T13:25:50Z</time>
      </trkpt>
      <trkpt lat="47.14484" lon="5.39225">
        <ele>202.494873</ele>
        <time>2011-04-08T13:26:03Z</time>
      </trkpt>
      <trkpt lat="47.14442" lon="5.39224">
        <ele>202.494873</ele>
        <time>2011-04-08T13:26:18Z</time>
      </trkpt>
      <trkpt lat="47.14411" lon="5.39244">
        <ele>201.533569</ele>
        <time>2011-04-08T13:26:32Z</time>
      </trkpt>
      <trkpt lat="47.1436" lon="5.393">
        <ele>199.61084</ele>
        <time>2011-04-08T13:26:48Z</time>
      </trkpt>
      <trkpt lat="47.14344" lon="5.39316">
        <ele>199.61084</ele>
        <time>2011-04-08T13:26:52Z</time>
      </trkpt>
      <trkpt lat="47.14289" lon="5.39393">
        <ele>199.61084</ele>
        <time>2011-04-08T13:27:12Z</time>
      </trkpt>
      <trkpt lat="47.14281" lon="5.394">
        <ele>199.61084</ele>
        <time>2011-04-08T13:27:15Z</time>
      </trkpt>
      <trkpt lat="47.14278" lon="5.39407">
        <ele>199.61084</ele>
        <time>2011-04-08T13:27:17Z</time>
      </trkpt>
      <trkpt lat="47.14226" lon="5.3945">
        <ele>202.014282</ele>
        <time>2011-04-08T13:27:34Z</time>
      </trkpt>
      <trkpt lat="47.14171" lon="5.39511">
        <ele>202.014282</ele>
        <time>2011-04-08T13:27:53Z</time>
      </trkpt>
      <trkpt lat="47.14159" lon="5.39529">
        <ele>202.014282</ele>
        <time>2011-04-08T13:27:57Z</time>
      </trkpt>
      <trkpt lat="47.14148" lon="5.3955">
        <ele>202.494873</ele>
        <time>2011-04-08T13:28:01Z</time>
      </trkpt>
      <trkpt lat="47.14095" lon="5.39645">
        <ele>202.494873</ele>
        <time>2011-04-08T13:28:21Z</time>
      </trkpt>
      <trkpt lat="47.14083" lon="5.39664">
        <ele>202.494873</ele>
        <time>2011-04-08T13:28:25Z</time>
      </trkpt>
      <trkpt lat="47.14011" lon="5.3976">
        <ele>202.494873</ele>
        <time>2011-04-08T13:28:47Z</time>
      </trkpt>
      <trkpt lat="47.14002" lon="5.39765">
        <ele>202.494873</ele>
        <time>2011-04-08T13:28:49Z</time>
      </trkpt>
      <trkpt lat="47.13912" lon="5.39818">
        <ele>201.533569</ele>
        <time>2011-04-08T13:29:09Z</time>
      </trkpt>
      <trkpt lat="47.13834" lon="5.39896">
        <ele>198.649536</ele>
        <time>2011-04-08T13:29:22Z</time>
      </trkpt>
      <trkpt lat="47.13824" lon="5.39908">
        <ele>198.168945</ele>
        <time>2011-04-08T13:29:24Z</time>
      </trkpt>
      <trkpt lat="47.13806" lon="5.39926">
        <ele>199.130127</ele>
        <time>2011-04-08T13:29:28Z</time>
      </trkpt>
      <trkpt lat="47.1376" lon="5.39949">
        <ele>201.533569</ele>
        <time>2011-04-08T13:29:43Z</time>
      </trkpt>
      <trkpt lat="47.13721" lon="5.39987">
        <ele>202.494873</ele>
        <time>2011-04-08T13:29:58Z</time>
      </trkpt>
      <trkpt lat="47.13646" lon="5.40073">
        <ele>202.014282</ele>
        <time>2011-04-08T13:30:20Z</time>
      </trkpt>
      <trkpt lat="47.13572" lon="5.40131">
        <ele>203.93689</ele>
        <time>2011-04-08T13:30:39Z</time>
      </trkpt>
      <trkpt lat="47.13527" lon="5.40162">
        <ele>203.93689</ele>
        <time>2011-04-08T13:30:50Z</time>
      </trkpt>
      <trkpt lat="47.13508" lon="5.40176">
        <ele>203.456177</ele>
        <time>2011-04-08T13:30:55Z</time>
      </trkpt>
      <trkpt lat="47.13498" lon="5.40185">
        <ele>203.93689</ele>
        <time>2011-04-08T13:30:58Z</time>
      </trkpt>
      <trkpt lat="47.13401" lon="5.40263">
        <ele>203.93689</ele>
        <time>2011-04-08T13:31:23Z</time>
      </trkpt>
      <trkpt lat="47.13385" lon="5.40279">
        <ele>203.456177</ele>
        <time>2011-04-08T13:31:27Z</time>
      </trkpt>
      <trkpt lat="47.13326" lon="5.40383">
        <ele>201.052856</ele>
        <time>2011-04-08T13:31:43Z</time>
      </trkpt>
      <trkpt lat="47.13284" lon="5.40431">
        <ele>202.014282</ele>
        <time>2011-04-08T13:31:56Z</time>
      </trkpt>
      <trkpt lat="47.13212" lon="5.40502">
        <ele>204.41748</ele>
        <time>2011-04-08T13:32:17Z</time>
      </trkpt>
      <trkpt lat="47.13166" lon="5.40564">
        <ele>205.378784</ele>
        <time>2011-04-08T13:32:33Z</time>
      </trkpt>
      <trkpt lat="47.13163" lon="5.4057">
        <ele>204.898071</ele>
        <time>2011-04-08T13:32:34Z</time>
      </trkpt>
      <trkpt lat="47.13135" lon="5.40599">
        <ele>203.456177</ele>
        <time>2011-04-08T13:32:40Z</time>
      </trkpt>
      <trkpt lat="47.13116" lon="5.40621">
        <ele>202.975464</ele>
        <time>2011-04-08T13:32:44Z</time>
      </trkpt>
      <trkpt lat="47.13104" lon="5.40655">
        <ele>203.456177</ele>
        <time>2011-04-08T13:32:48Z</time>
      </trkpt>
      <trkpt lat="47.13089" lon="5.40747">
        <ele>205.378784</ele>
        <time>2011-04-08T13:33:03Z</time>
      </trkpt>
      <trkpt lat="47.13088" lon="5.40753">
        <ele>205.378784</ele>
        <time>2011-04-08T13:33:04Z</time>
      </trkpt>
      <trkpt lat="47.13083" lon="5.40765">
        <ele>205.378784</ele>
        <time>2011-04-08T13:33:06Z</time>
      </trkpt>
      <trkpt lat="47.13065" lon="5.40791">
        <ele>205.859497</ele>
        <time>2011-04-08T13:33:13Z</time>
      </trkpt>
      <trkpt lat="47.12952" lon="5.4075">
        <ele>207.782104</ele>
        <time>2011-04-08T13:33:40Z</time>
      </trkpt>
      <trkpt lat="47.12899" lon="5.40745">
        <ele>204.898071</ele>
        <time>2011-04-08T13:33:50Z</time>
      </trkpt>
      <trkpt lat="47.12834" lon="5.40763">
        <ele>201.533569</ele>
        <time>2011-04-08T13:34:00Z</time>
      </trkpt>
      <trkpt lat="47.12822" lon="5.40769">
        <ele>202.014282</ele>
        <time>2011-04-08T13:34:04Z</time>
      </trkpt>
      <trkpt lat="47.12791" lon="5.40786">
        <ele>202.494873</ele>
        <time>2011-04-08T13:34:12Z</time>
      </trkpt>
      <trkpt lat="47.12781" lon="5.40787">
        <ele>202.494873</ele>
        <time>2011-04-08T13:34:23Z</time>
      </trkpt>
      <trkpt lat="47.12781" lon="5.40787">
        <ele>202.494873</ele>
        <time>2011-04-08T13:34:35Z</time>
      </trkpt>
      <trkpt lat="47.12788" lon="5.40832">
        <ele>203.456177</ele>
        <time>2011-04-08T13:34:48Z</time>
      </trkpt>
      <trkpt lat="47.12813" lon="5.40899">
        <ele>206.340088</ele>
        <time>2011-04-08T13:35:02Z</time>
      </trkpt>
      <trkpt lat="47.12832" lon="5.40977">
        <ele>208.262817</ele>
        <time>2011-04-08T13:35:19Z</time>
      </trkpt>
      <trkpt lat="47.12842" lon="5.41068">
        <ele>210.185425</ele>
        <time>2011-04-08T13:35:39Z</time>
      </trkpt>
      <trkpt lat="47.12851" lon="5.41151">
        <ele>210.666016</ele>
        <time>2011-04-08T13:35:55Z</time>
      </trkpt>
      <trkpt lat="47.1286" lon="5.41226">
        <ele>211.146729</ele>
        <time>2011-04-08T13:36:10Z</time>
      </trkpt>
      <trkpt lat="47.12864" lon="5.41248">
        <ele>211.146729</ele>
        <time>2011-04-08T13:36:14Z</time>
      </trkpt>
      <trkpt lat="47.12877" lon="5.41329">
        <ele>209.704834</ele>
        <time>2011-04-08T13:36:26Z</time>
      </trkpt>
      <trkpt lat="47.12872" lon="5.41359">
        <ele>209.224121</ele>
        <time>2011-04-08T13:36:30Z</time>
      </trkpt>
      <trkpt lat="47.1283" lon="5.41486">
        <ele>211.146729</ele>
        <time>2011-04-08T13:36:52Z</time>
      </trkpt>
      <trkpt lat="47.12811" lon="5.41569">
        <ele>211.146729</ele>
        <time>2011-04-08T13:37:06Z</time>
      </trkpt>
      <trkpt lat="47.12808" lon="5.41702">
        <ele>208.262817</ele>
        <time>2011-04-08T13:37:20Z</time>
      </trkpt>
      <trkpt lat="47.12806" lon="5.41761">
        <ele>206.340088</ele>
        <time>2011-04-08T13:37:25Z</time>
      </trkpt>
      <trkpt lat="47.12804" lon="5.41855">
        <ele>203.93689</ele>
        <time>2011-04-08T13:37:32Z</time>
      </trkpt>
      <trkpt lat="47.12822" lon="5.41913">
        <ele>203.456177</ele>
        <time>2011-04-08T13:37:37Z</time>
      </trkpt>
      <trkpt lat="47.12845" lon="5.41945">
        <ele>202.975464</ele>
        <time>2011-04-08T13:37:41Z</time>
      </trkpt>
      <trkpt lat="47.12859" lon="5.41979">
        <ele>202.494873</ele>
        <time>2011-04-08T13:37:45Z</time>
      </trkpt>
      <trkpt lat="47.12861" lon="5.42005">
        <ele>202.975464</ele>
        <time>2011-04-08T13:37:48Z</time>
      </trkpt>
      <trkpt lat="47.1286" lon="5.42019">
        <ele>202.975464</ele>
        <time>2011-04-08T13:37:50Z</time>
      </trkpt>
      <trkpt lat="47.12856" lon="5.42062">
        <ele>205.378784</ele>
        <time>2011-04-08T13:38:00Z</time>
      </trkpt>
      <trkpt lat="47.12851" lon="5.42118">
        <ele>208.262817</ele>
        <time>2011-04-08T13:38:13Z</time>
      </trkpt>
      <trkpt lat="47.12857" lon="5.42194">
        <ele>210.666016</ele>
        <time>2011-04-08T13:38:26Z</time>
      </trkpt>
      <trkpt lat="47.12859" lon="5.42258">
        <ele>211.146729</ele>
        <time>2011-04-08T13:38:38Z</time>
      </trkpt>
      <trkpt lat="47.1285" lon="5.42328">
        <ele>211.146729</ele>
        <time>2011-04-08T13:38:55Z</time>
      </trkpt>
      <trkpt lat="47.12851" lon="5.42329">
        <ele>211.146729</ele>
        <time>2011-04-08T13:39:23Z</time>
      </trkpt>
      <trkpt lat="47.12852" lon="5.4233">
        <ele>210.666016</ele>
        <time>2011-04-08T13:44:05Z</time>
      </trkpt>
      <trkpt lat="47.12852" lon="5.42331">
        <ele>210.666016</ele>
        <time>2011-04-08T13:45:33Z</time>
      </trkpt>
      <trkpt lat="47.12846" lon="5.42342">
        <ele>210.185425</ele>
        <time>2011-04-08T13:45:46Z</time>
      </trkpt>
      <trkpt lat="47.12846" lon="5.42345">
        <ele>211.146729</ele>
        <time>2011-04-08T13:45:47Z</time>
      </trkpt>
      <trkpt lat="47.12842" lon="5.42412">
        <ele>211.146729</ele>
        <time>2011-04-08T13:46:03Z</time>
      </trkpt>
      <trkpt lat="47.12839" lon="5.42436">
        <ele>211.146729</ele>
        <time>2011-04-08T13:46:08Z</time>
      </trkpt>
      <trkpt lat="47.1284" lon="5.42489">
        <ele>210.185425</ele>
        <time>2011-04-08T13:46:18Z</time>
      </trkpt>
      <trkpt lat="47.12838" lon="5.42514">
        <ele>210.185425</ele>
        <time>2011-04-08T13:46:22Z</time>
      </trkpt>
      <trkpt lat="47.12836" lon="5.42631">
        <ele>210.185425</ele>
        <time>2011-04-08T13:46:39Z</time>
      </trkpt>
      <trkpt lat="47.12836" lon="5.42638">
        <ele>210.185425</ele>
        <time>2011-04-08T13:46:40Z</time>
      </trkpt>
      <trkpt lat="47.12839" lon="5.42659">
        <ele>210.666016</ele>
        <time>2011-04-08T13:46:44Z</time>
      </trkpt>
      <trkpt lat="47.12843" lon="5.42673">
        <ele>210.666016</ele>
        <time>2011-04-08T13:46:47Z</time>
      </trkpt>
      <trkpt lat="47.12863" lon="5.42787">
        <ele>209.224121</ele>
        <time>2011-04-08T13:47:04Z</time>
      </trkpt>
      <trkpt lat="47.12884" lon="5.42887">
        <ele>209.704834</ele>
        <time>2011-04-08T13:47:21Z</time>
      </trkpt>
      <trkpt lat="47.12885" lon="5.42904">
        <ele>210.185425</ele>
        <time>2011-04-08T13:47:24Z</time>
      </trkpt>
      <trkpt lat="47.12889" lon="5.42921">
        <ele>210.666016</ele>
        <time>2011-04-08T13:47:27Z</time>
      </trkpt>
      <trkpt lat="47.1291" lon="5.43011">
        <ele>211.627441</ele>
        <time>2011-04-08T13:47:43Z</time>
      </trkpt>
      <trkpt lat="47.1293" lon="5.43094">
        <ele>211.627441</ele>
        <time>2011-04-08T13:47:58Z</time>
      </trkpt>
      <trkpt lat="47.12939" lon="5.43138">
        <ele>211.627441</ele>
        <time>2011-04-08T13:48:05Z</time>
      </trkpt>
      <trkpt lat="47.12936" lon="5.43226">
        <ele>212.108032</ele>
        <time>2011-04-08T13:48:21Z</time>
      </trkpt>
      <trkpt lat="47.12925" lon="5.43302">
        <ele>213.550049</ele>
        <time>2011-04-08T13:48:36Z</time>
      </trkpt>
      <trkpt lat="47.12919" lon="5.43393">
        <ele>214.991943</ele>
        <time>2011-04-08T13:48:53Z</time>
      </trkpt>
      <trkpt lat="47.12911" lon="5.43464">
        <ele>215.953247</ele>
        <time>2011-04-08T13:49:06Z</time>
      </trkpt>
      <trkpt lat="47.12897" lon="5.43572">
        <ele>216.43396</ele>
        <time>2011-04-08T13:49:25Z</time>
      </trkpt>
      <trkpt lat="47.12895" lon="5.43583">
        <ele>216.43396</ele>
        <time>2011-04-08T13:49:27Z</time>
      </trkpt>
      <trkpt lat="47.12893" lon="5.43602">
        <ele>215.953247</ele>
        <time>2011-04-08T13:49:30Z</time>
      </trkpt>
      <trkpt lat="47.12888" lon="5.43632">
        <ele>216.43396</ele>
        <time>2011-04-08T13:49:35Z</time>
      </trkpt>
      <trkpt lat="47.12886" lon="5.43693">
        <ele>216.914673</ele>
        <time>2011-04-08T13:49:44Z</time>
      </trkpt>
      <trkpt lat="47.12882" lon="5.43733">
        <ele>217.875977</ele>
        <time>2011-04-08T13:49:50Z</time>
      </trkpt>
      <trkpt lat="47.12882" lon="5.43754">
        <ele>217.395386</ele>
        <time>2011-04-08T13:49:53Z</time>
      </trkpt>
      <trkpt lat="47.12853" lon="5.43883">
        <ele>217.875977</ele>
        <time>2011-04-08T13:50:11Z</time>
      </trkpt>
      <trkpt lat="47.12801" lon="5.4401">
        <ele>217.875977</ele>
        <time>2011-04-08T13:50:33Z</time>
      </trkpt>
      <trkpt lat="47.12765" lon="5.44174">
        <ele>218.83728</ele>
        <time>2011-04-08T13:50:58Z</time>
      </trkpt>
      <trkpt lat="47.12723" lon="5.44299">
        <ele>219.317993</ele>
        <time>2011-04-08T13:51:15Z</time>
      </trkpt>
      <trkpt lat="47.12715" lon="5.44333">
        <ele>219.798584</ele>
        <time>2011-04-08T13:51:20Z</time>
      </trkpt>
      <trkpt lat="47.12686" lon="5.44512">
        <ele>220.759888</ele>
        <time>2011-04-08T13:51:47Z</time>
      </trkpt>
      <trkpt lat="47.12665" lon="5.44642">
        <ele>221.721191</ele>
        <time>2011-04-08T13:52:07Z</time>
      </trkpt>
      <trkpt lat="47.12654" lon="5.44715">
        <ele>223.163208</ele>
        <time>2011-04-08T13:52:22Z</time>
      </trkpt>
      <trkpt lat="47.12643" lon="5.44784">
        <ele>224.605225</ele>
        <time>2011-04-08T13:52:36Z</time>
      </trkpt>
      <trkpt lat="47.12608" lon="5.44904">
        <ele>226.047119</ele>
        <time>2011-04-08T13:53:00Z</time>
      </trkpt>
      <trkpt lat="47.12589" lon="5.44984">
        <ele>223.643799</ele>
        <time>2011-04-08T13:53:14Z</time>
      </trkpt>
      <trkpt lat="47.12581" lon="5.45014">
        <ele>223.643799</ele>
        <time>2011-04-08T13:53:24Z</time>
      </trkpt>
      <trkpt lat="47.12568" lon="5.45056">
        <ele>224.124512</ele>
        <time>2011-04-08T13:53:37Z</time>
      </trkpt>
      <trkpt lat="47.12559" lon="5.45105">
        <ele>225.566528</ele>
        <time>2011-04-08T13:53:51Z</time>
      </trkpt>
      <trkpt lat="47.12545" lon="5.45173">
        <ele>226.527832</ele>
        <time>2011-04-08T13:54:04Z</time>
      </trkpt>
      <trkpt lat="47.12524" lon="5.45243">
        <ele>228.450439</ele>
        <time>2011-04-08T13:54:21Z</time>
      </trkpt>
      <trkpt lat="47.12516" lon="5.45303">
        <ele>231.334351</ele>
        <time>2011-04-08T13:54:37Z</time>
      </trkpt>
      <trkpt lat="47.1255" lon="5.45351">
        <ele>232.776489</ele>
        <time>2011-04-08T13:54:52Z</time>
      </trkpt>
      <trkpt lat="47.12571" lon="5.4542">
        <ele>231.334351</ele>
        <time>2011-04-08T13:55:08Z</time>
      </trkpt>
      <trkpt lat="47.12583" lon="5.45484">
        <ele>230.373047</ele>
        <time>2011-04-08T13:55:21Z</time>
      </trkpt>
      <trkpt lat="47.12606" lon="5.45523">
        <ele>231.814941</ele>
        <time>2011-04-08T13:55:33Z</time>
      </trkpt>
      <trkpt lat="47.12596" lon="5.45567">
        <ele>234.218384</ele>
        <time>2011-04-08T13:55:46Z</time>
      </trkpt>
      <trkpt lat="47.12595" lon="5.45583">
        <ele>233.737671</ele>
        <time>2011-04-08T13:55:58Z</time>
      </trkpt>
      <trkpt lat="47.12582" lon="5.45626">
        <ele>234.699097</ele>
        <time>2011-04-08T13:56:09Z</time>
      </trkpt>
      <trkpt lat="47.12559" lon="5.45689">
        <ele>236.140991</ele>
        <time>2011-04-08T13:56:25Z</time>
      </trkpt>
      <trkpt lat="47.12547" lon="5.45704">
        <ele>238.063599</ele>
        <time>2011-04-08T13:56:30Z</time>
      </trkpt>
      <trkpt lat="47.12517" lon="5.45754">
        <ele>239.986206</ele>
        <time>2011-04-08T13:56:46Z</time>
      </trkpt>
      <trkpt lat="47.12509" lon="5.45766">
        <ele>240.467041</ele>
        <time>2011-04-08T13:56:50Z</time>
      </trkpt>
      <trkpt lat="47.12505" lon="5.45786">
        <ele>239.505493</ele>
        <time>2011-04-08T13:57:00Z</time>
      </trkpt>
      <trkpt lat="47.12506" lon="5.45786">
        <ele>239.986206</ele>
        <time>2011-04-08T13:57:42Z</time>
      </trkpt>
      <trkpt lat="47.12529" lon="5.45782">
        <ele>239.024902</ele>
        <time>2011-04-08T13:57:51Z</time>
      </trkpt>
      <trkpt lat="47.12581" lon="5.45742">
        <ele>237.102295</ele>
        <time>2011-04-08T13:58:01Z</time>
      </trkpt>
      <trkpt lat="47.12633" lon="5.45702">
        <ele>232.776489</ele>
        <time>2011-04-08T13:58:10Z</time>
      </trkpt>
      <trkpt lat="47.12661" lon="5.45688">
        <ele>231.814941</ele>
        <time>2011-04-08T13:58:15Z</time>
      </trkpt>
      <trkpt lat="47.12672" lon="5.45695">
        <ele>230.85376</ele>
        <time>2011-04-08T13:58:17Z</time>
      </trkpt>
      <trkpt lat="47.12722" lon="5.45726">
        <ele>231.814941</ele>
        <time>2011-04-08T13:58:30Z</time>
      </trkpt>
      <trkpt lat="47.12787" lon="5.45734">
        <ele>230.373047</ele>
        <time>2011-04-08T13:58:44Z</time>
      </trkpt>
      <trkpt lat="47.12886" lon="5.45707">
        <ele>227.008545</ele>
        <time>2011-04-08T13:59:00Z</time>
      </trkpt>
      <trkpt lat="47.12961" lon="5.45681">
        <ele>224.124512</ele>
        <time>2011-04-08T13:59:10Z</time>
      </trkpt>
      <trkpt lat="47.1304" lon="5.45689">
        <ele>223.643799</ele>
        <time>2011-04-08T13:59:22Z</time>
      </trkpt>
      <trkpt lat="47.13118" lon="5.45667">
        <ele>222.201782</ele>
        <time>2011-04-08T13:59:35Z</time>
      </trkpt>
      <trkpt lat="47.13265" lon="5.45594">
        <ele>221.721191</ele>
        <time>2011-04-08T13:59:59Z</time>
      </trkpt>
      <trkpt lat="47.13383" lon="5.45528">
        <ele>223.643799</ele>
        <time>2011-04-08T14:00:21Z</time>
      </trkpt>
      <trkpt lat="47.1339" lon="5.45524">
        <ele>223.643799</ele>
        <time>2011-04-08T14:00:23Z</time>
      </trkpt>
      <trkpt lat="47.13399" lon="5.45537">
        <ele>224.124512</ele>
        <time>2011-04-08T14:00:27Z</time>
      </trkpt>
      <trkpt lat="47.1342" lon="5.45634">
        <ele>222.201782</ele>
        <time>2011-04-08T14:00:47Z</time>
      </trkpt>
      <trkpt lat="47.13438" lon="5.45724">
        <ele>221.721191</ele>
        <time>2011-04-08T14:01:02Z</time>
      </trkpt>
      <trkpt lat="47.1348" lon="5.45908">
        <ele>219.317993</ele>
        <time>2011-04-08T14:01:25Z</time>
      </trkpt>
      <trkpt lat="47.13528" lon="5.46123">
        <ele>220.279175</ele>
        <time>2011-04-08T14:01:53Z</time>
      </trkpt>
      <trkpt lat="47.13583" lon="5.46354">
        <ele>220.759888</ele>
        <time>2011-04-08T14:02:23Z</time>
      </trkpt>
      <trkpt lat="47.13588" lon="5.46379">
        <ele>221.240601</ele>
        <time>2011-04-08T14:02:26Z</time>
      </trkpt>
      <trkpt lat="47.13604" lon="5.46568">
        <ele>221.721191</ele>
        <time>2011-04-08T14:02:51Z</time>
      </trkpt>
      <trkpt lat="47.13607" lon="5.46598">
        <ele>223.163208</ele>
        <time>2011-04-08T14:02:56Z</time>
      </trkpt>
      <trkpt lat="47.1361" lon="5.4664">
        <ele>224.124512</ele>
        <time>2011-04-08T14:03:03Z</time>
      </trkpt>
      <trkpt lat="47.13626" lon="5.46733">
        <ele>227.489136</ele>
        <time>2011-04-08T14:03:20Z</time>
      </trkpt>
      <trkpt lat="47.13643" lon="5.46843">
        <ele>229.892334</ele>
        <time>2011-04-08T14:03:43Z</time>
      </trkpt>
      <trkpt lat="47.1365" lon="5.46892">
        <ele>229.411743</ele>
        <time>2011-04-08T14:03:59Z</time>
      </trkpt>
      <trkpt lat="47.13651" lon="5.46897">
        <ele>229.892334</ele>
        <time>2011-04-08T14:04:01Z</time>
      </trkpt>
      <trkpt lat="47.13657" lon="5.46934">
        <ele>228.931152</ele>
        <time>2011-04-08T14:04:17Z</time>
      </trkpt>
      <trkpt lat="47.1367" lon="5.46987">
        <ele>226.527832</ele>
        <time>2011-04-08T14:04:36Z</time>
      </trkpt>
      <trkpt lat="47.13687" lon="5.47047">
        <ele>223.643799</ele>
        <time>2011-04-08T14:04:50Z</time>
      </trkpt>
      <trkpt lat="47.13714" lon="5.4712">
        <ele>220.759888</ele>
        <time>2011-04-08T14:04:59Z</time>
      </trkpt>
      <trkpt lat="47.13735" lon="5.47178">
        <ele>218.83728</ele>
        <time>2011-04-08T14:05:04Z</time>
      </trkpt>
      <trkpt lat="47.13748" lon="5.47216">
        <ele>216.914673</ele>
        <time>2011-04-08T14:05:07Z</time>
      </trkpt>
      <trkpt lat="47.13767" lon="5.47282">
        <ele>215.953247</ele>
        <time>2011-04-08T14:05:12Z</time>
      </trkpt>
      <trkpt lat="47.13772" lon="5.47395">
        <ele>214.991943</ele>
        <time>2011-04-08T14:05:22Z</time>
      </trkpt>
      <trkpt lat="47.13785" lon="5.47477">
        <ele>217.875977</ele>
        <time>2011-04-08T14:05:34Z</time>
      </trkpt>
      <trkpt lat="47.13815" lon="5.47568">
        <ele>220.759888</ele>
        <time>2011-04-08T14:05:53Z</time>
      </trkpt>
      <trkpt lat="47.13851" lon="5.47662">
        <ele>224.124512</ele>
        <time>2011-04-08T14:06:11Z</time>
      </trkpt>
      <trkpt lat="47.13896" lon="5.47804">
        <ele>227.008545</ele>
        <time>2011-04-08T14:06:37Z</time>
      </trkpt>
      <trkpt lat="47.13928" lon="5.47878">
        <ele>230.373047</ele>
        <time>2011-04-08T14:06:52Z</time>
      </trkpt>
      <trkpt lat="47.13993" lon="5.48014">
        <ele>232.776489</ele>
        <time>2011-04-08T14:07:22Z</time>
      </trkpt>
      <trkpt lat="47.14037" lon="5.48111">
        <ele>234.218384</ele>
        <time>2011-04-08T14:07:43Z</time>
      </trkpt>
      <trkpt lat="47.14065" lon="5.48175">
        <ele>234.218384</ele>
        <time>2011-04-08T14:07:58Z</time>
      </trkpt>
      <trkpt lat="47.14092" lon="5.48256">
        <ele>235.660278</ele>
        <time>2011-04-08T14:08:16Z</time>
      </trkpt>
      <trkpt lat="47.14107" lon="5.48339">
        <ele>237.102295</ele>
        <time>2011-04-08T14:08:34Z</time>
      </trkpt>
      <trkpt lat="47.14112" lon="5.48394">
        <ele>238.544312</ele>
        <time>2011-04-08T14:08:48Z</time>
      </trkpt>
      <trkpt lat="47.14108" lon="5.48449">
        <ele>238.544312</ele>
        <time>2011-04-08T14:09:01Z</time>
      </trkpt>
      <trkpt lat="47.14109" lon="5.48524">
        <ele>239.505493</ele>
        <time>2011-04-08T14:09:17Z</time>
      </trkpt>
      <trkpt lat="47.14107" lon="5.48537">
        <ele>239.505493</ele>
        <time>2011-04-08T14:09:21Z</time>
      </trkpt>
      <trkpt lat="47.14108" lon="5.48541">
        <ele>239.505493</ele>
        <time>2011-04-08T14:09:25Z</time>
      </trkpt>
      <trkpt lat="47.1411" lon="5.48478">
        <ele>239.024902</ele>
        <time>2011-04-08T14:09:48Z</time>
      </trkpt>
      <trkpt lat="47.14112" lon="5.48453">
        <ele>238.544312</ele>
        <time>2011-04-08T14:09:54Z</time>
      </trkpt>
      <trkpt lat="47.1411" lon="5.48466">
        <ele>239.024902</ele>
        <time>2011-04-08T14:09:59Z</time>
      </trkpt>
      <trkpt lat="47.14108" lon="5.48537">
        <ele>239.986206</ele>
        <time>2011-04-08T14:10:12Z</time>
      </trkpt>
      <trkpt lat="47.14102" lon="5.48579">
        <ele>239.986206</ele>
        <time>2011-04-08T14:10:26Z</time>
      </trkpt>
      <trkpt lat="47.14101" lon="5.48608">
        <ele>240.947632</ele>
        <time>2011-04-08T14:12:02Z</time>
      </trkpt>
      <trkpt lat="47.14096" lon="5.48722">
        <ele>240.467041</ele>
        <time>2011-04-08T14:12:25Z</time>
      </trkpt>
      <trkpt lat="47.1409" lon="5.48806">
        <ele>237.582886</ele>
        <time>2011-04-08T14:12:37Z</time>
      </trkpt>
      <trkpt lat="47.14088" lon="5.48848">
        <ele>234.699097</ele>
        <time>2011-04-08T14:12:42Z</time>
      </trkpt>
      <trkpt lat="47.14086" lon="5.48861">
        <ele>234.218384</ele>
        <time>2011-04-08T14:12:44Z</time>
      </trkpt>
      <trkpt lat="47.14075" lon="5.48921">
        <ele>231.334351</ele>
        <time>2011-04-08T14:12:52Z</time>
      </trkpt>
      <trkpt lat="47.14064" lon="5.48968">
        <ele>228.450439</ele>
        <time>2011-04-08T14:13:03Z</time>
      </trkpt>
      <trkpt lat="47.14048" lon="5.49025">
        <ele>227.969727</ele>
        <time>2011-04-08T14:13:17Z</time>
      </trkpt>
      <trkpt lat="47.1403" lon="5.49074">
        <ele>227.969727</ele>
        <time>2011-04-08T14:13:27Z</time>
      </trkpt>
      <trkpt lat="47.14029" lon="5.49106">
        <ele>227.969727</ele>
        <time>2011-04-08T14:13:32Z</time>
      </trkpt>
      <trkpt lat="47.14064" lon="5.49247">
        <ele>228.450439</ele>
        <time>2011-04-08T14:13:56Z</time>
      </trkpt>
      <trkpt lat="47.14105" lon="5.49384">
        <ele>231.334351</ele>
        <time>2011-04-08T14:14:20Z</time>
      </trkpt>
      <trkpt lat="47.14113" lon="5.49414">
        <ele>231.814941</ele>
        <time>2011-04-08T14:14:25Z</time>
      </trkpt>
      <trkpt lat="47.14119" lon="5.4954">
        <ele>234.699097</ele>
        <time>2011-04-08T14:14:45Z</time>
      </trkpt>
      <trkpt lat="47.14098" lon="5.49671">
        <ele>234.699097</ele>
        <time>2011-04-08T14:15:05Z</time>
      </trkpt>
      <trkpt lat="47.14111" lon="5.49788">
        <ele>235.179688</ele>
        <time>2011-04-08T14:15:23Z</time>
      </trkpt>
      <trkpt lat="47.14125" lon="5.49884">
        <ele>238.063599</ele>
        <time>2011-04-08T14:15:40Z</time>
      </trkpt>
      <trkpt lat="47.14123" lon="5.49937">
        <ele>239.986206</ele>
        <time>2011-04-08T14:15:54Z</time>
      </trkpt>
      <trkpt lat="47.1412" lon="5.49941">
        <ele>239.986206</ele>
        <time>2011-04-08T14:16:10Z</time>
      </trkpt>
      <trkpt lat="47.1412" lon="5.49941">
        <ele>239.986206</ele>
        <time>2011-04-08T14:16:47Z</time>
      </trkpt>
      <trkpt lat="47.14116" lon="5.49946">
        <ele>240.467041</ele>
        <time>2011-04-08T14:16:51Z</time>
      </trkpt>
      <trkpt lat="47.14047" lon="5.49975">
        <ele>241.908936</ele>
        <time>2011-04-08T14:17:08Z</time>
      </trkpt>
      <trkpt lat="47.1398" lon="5.49996">
        <ele>245.273438</ele>
        <time>2011-04-08T14:17:26Z</time>
      </trkpt>
      <trkpt lat="47.13918" lon="5.5001">
        <ele>247.196045</ele>
        <time>2011-04-08T14:17:45Z</time>
      </trkpt>
      <trkpt lat="47.13847" lon="5.50027">
        <ele>250.560791</ele>
        <time>2011-04-08T14:18:05Z</time>
      </trkpt>
      <trkpt lat="47.13802" lon="5.50035">
        <ele>254.406006</ele>
        <time>2011-04-08T14:18:19Z</time>
      </trkpt>
      <trkpt lat="47.13795" lon="5.50037">
        <ele>252.483398</ele>
        <time>2011-04-08T14:18:21Z</time>
      </trkpt>
      <trkpt lat="47.13759" lon="5.50045">
        <ele>253.444702</ele>
        <time>2011-04-08T14:18:31Z</time>
      </trkpt>
      <trkpt lat="47.13716" lon="5.50053">
        <ele>257.290039</ele>
        <time>2011-04-08T14:18:43Z</time>
      </trkpt>
      <trkpt lat="47.13661" lon="5.50064">
        <ele>260.654541</ele>
        <time>2011-04-08T14:18:59Z</time>
      </trkpt>
      <trkpt lat="47.13609" lon="5.5007">
        <ele>263.538574</ele>
        <time>2011-04-08T14:19:14Z</time>
      </trkpt>
      <trkpt lat="47.13571" lon="5.50076">
        <ele>265.461304</ele>
        <time>2011-04-08T14:19:26Z</time>
      </trkpt>
      <trkpt lat="47.13508" lon="5.50074">
        <ele>268.825806</ele>
        <time>2011-04-08T14:19:46Z</time>
      </trkpt>
      <trkpt lat="47.13472" lon="5.50065">
        <ele>269.787109</ele>
        <time>2011-04-08T14:19:56Z</time>
      </trkpt>
      <trkpt lat="47.1345" lon="5.50078">
        <ele>271.229126</ele>
        <time>2011-04-08T14:20:05Z</time>
      </trkpt>
      <trkpt lat="47.13454" lon="5.50106">
        <ele>271.229126</ele>
        <time>2011-04-08T14:20:17Z</time>
      </trkpt>
      <trkpt lat="47.13455" lon="5.50129">
        <ele>271.229126</ele>
        <time>2011-04-08T14:20:32Z</time>
      </trkpt>
      <trkpt lat="47.13454" lon="5.5013">
        <ele>271.229126</ele>
        <time>2011-04-08T14:22:41Z</time>
      </trkpt>
      <trkpt lat="47.13448" lon="5.50139">
        <ele>271.229126</ele>
        <time>2011-04-08T14:24:26Z</time>
      </trkpt>
      <trkpt lat="47.13418" lon="5.50143">
        <ele>273.151855</ele>
        <time>2011-04-08T14:24:41Z</time>
      </trkpt>
      <trkpt lat="47.13374" lon="5.50167">
        <ele>272.671143</ele>
        <time>2011-04-08T14:24:57Z</time>
      </trkpt>
      <trkpt lat="47.13298" lon="5.50219">
        <ele>274.59375</ele>
        <time>2011-04-08T14:25:20Z</time>
      </trkpt>
      <trkpt lat="47.13218" lon="5.50274">
        <ele>272.19043</ele>
        <time>2011-04-08T14:25:37Z</time>
      </trkpt>
      <trkpt lat="47.1313" lon="5.50341">
        <ele>269.306519</ele>
        <time>2011-04-08T14:25:52Z</time>
      </trkpt>
      <trkpt lat="47.13092" lon="5.5037">
        <ele>267.383911</ele>
        <time>2011-04-08T14:26:00Z</time>
      </trkpt>
      <trkpt lat="47.13014" lon="5.50424">
        <ele>264.499878</ele>
        <time>2011-04-08T14:26:16Z</time>
      </trkpt>
      <trkpt lat="47.13007" lon="5.50428">
        <ele>264.499878</ele>
        <time>2011-04-08T14:26:17Z</time>
      </trkpt>
      <trkpt lat="47.12933" lon="5.50431">
        <ele>261.615967</ele>
        <time>2011-04-08T14:26:27Z</time>
      </trkpt>
      <trkpt lat="47.12911" lon="5.50426">
        <ele>259.693359</ele>
        <time>2011-04-08T14:26:30Z</time>
      </trkpt>
      <trkpt lat="47.12834" lon="5.50378">
        <ele>258.251343</ele>
        <time>2011-04-08T14:26:42Z</time>
      </trkpt>
      <trkpt lat="47.12817" lon="5.50365">
        <ele>256.809326</ele>
        <time>2011-04-08T14:26:45Z</time>
      </trkpt>
      <trkpt lat="47.12768" lon="5.50326">
        <ele>255.36731</ele>
        <time>2011-04-08T14:26:54Z</time>
      </trkpt>
      <trkpt lat="47.12745" lon="5.50317">
        <ele>254.406006</ele>
        <time>2011-04-08T14:26:58Z</time>
      </trkpt>
      <trkpt lat="47.12666" lon="5.50312">
        <ele>252.963989</ele>
        <time>2011-04-08T14:27:14Z</time>
      </trkpt>
      <trkpt lat="47.12645" lon="5.50297">
        <ele>252.963989</ele>
        <time>2011-04-08T14:27:19Z</time>
      </trkpt>
      <trkpt lat="47.12623" lon="5.50274">
        <ele>251.522095</ele>
        <time>2011-04-08T14:27:32Z</time>
      </trkpt>
      <trkpt lat="47.12623" lon="5.50272">
        <ele>251.041382</ele>
        <time>2011-04-08T14:27:51Z</time>
      </trkpt>
      <trkpt lat="47.12611" lon="5.50261">
        <ele>250.560791</ele>
        <time>2011-04-08T14:28:09Z</time>
      </trkpt>
      <trkpt lat="47.12543" lon="5.5023">
        <ele>247.196045</ele>
        <time>2011-04-08T14:28:22Z</time>
      </trkpt>
      <trkpt lat="47.1253" lon="5.50225">
        <ele>246.715454</ele>
        <time>2011-04-08T14:28:24Z</time>
      </trkpt>
      <trkpt lat="47.12516" lon="5.50222">
        <ele>246.234863</ele>
        <time>2011-04-08T14:28:26Z</time>
      </trkpt>
      <trkpt lat="47.12489" lon="5.50228">
        <ele>244.792847</ele>
        <time>2011-04-08T14:28:30Z</time>
      </trkpt>
      <trkpt lat="47.12434" lon="5.5026">
        <ele>243.35083</ele>
        <time>2011-04-08T14:28:39Z</time>
      </trkpt>
      <trkpt lat="47.12398" lon="5.50284">
        <ele>241.908936</ele>
        <time>2011-04-08T14:28:50Z</time>
      </trkpt>
      <trkpt lat="47.12396" lon="5.50285">
        <ele>241.908936</ele>
        <time>2011-04-08T14:28:52Z</time>
      </trkpt>
      <trkpt lat="47.12361" lon="5.50284">
        <ele>242.389648</ele>
        <time>2011-04-08T14:29:08Z</time>
      </trkpt>
      <trkpt lat="47.12308" lon="5.50269">
        <ele>243.35083</ele>
        <time>2011-04-08T14:29:20Z</time>
      </trkpt>
      <trkpt lat="47.12236" lon="5.50247">
        <ele>242.870239</ele>
        <time>2011-04-08T14:29:37Z</time>
      </trkpt>
      <trkpt lat="47.12225" lon="5.50248">
        <ele>243.35083</ele>
        <time>2011-04-08T14:29:41Z</time>
      </trkpt>
      <trkpt lat="47.12218" lon="5.50282">
        <ele>242.389648</ele>
        <time>2011-04-08T14:29:51Z</time>
      </trkpt>
      <trkpt lat="47.12181" lon="5.50333">
        <ele>241.428223</ele>
        <time>2011-04-08T14:30:05Z</time>
      </trkpt>
      <trkpt lat="47.12132" lon="5.50401">
        <ele>239.505493</ele>
        <time>2011-04-08T14:30:18Z</time>
      </trkpt>
      <trkpt lat="47.12041" lon="5.50511">
        <ele>237.102295</ele>
        <time>2011-04-08T14:30:35Z</time>
      </trkpt>
      <trkpt lat="47.11892" lon="5.50595">
        <ele>234.699097</ele>
        <time>2011-04-08T14:30:57Z</time>
      </trkpt>
      <trkpt lat="47.11745" lon="5.50679">
        <ele>232.776489</ele>
        <time>2011-04-08T14:31:18Z</time>
      </trkpt>
      <trkpt lat="47.11594" lon="5.50773">
        <ele>232.776489</ele>
        <time>2011-04-08T14:31:42Z</time>
      </trkpt>
      <trkpt lat="47.11565" lon="5.50806">
        <ele>232.295776</ele>
        <time>2011-04-08T14:31:48Z</time>
      </trkpt>
      <trkpt lat="47.11469" lon="5.5091">
        <ele>228.931152</ele>
        <time>2011-04-08T14:32:05Z</time>
      </trkpt>
      <trkpt lat="47.11396" lon="5.51026">
        <ele>227.969727</ele>
        <time>2011-04-08T14:32:21Z</time>
      </trkpt>
      <trkpt lat="47.11327" lon="5.51102">
        <ele>226.527832</ele>
        <time>2011-04-08T14:32:33Z</time>
      </trkpt>
      <trkpt lat="47.11242" lon="5.51158">
        <ele>225.085938</ele>
        <time>2011-04-08T14:32:45Z</time>
      </trkpt>
      <trkpt lat="47.11106" lon="5.51235">
        <ele>226.047119</ele>
        <time>2011-04-08T14:33:07Z</time>
      </trkpt>
      <trkpt lat="47.11063" lon="5.51255">
        <ele>226.527832</ele>
        <time>2011-04-08T14:33:15Z</time>
      </trkpt>
      <trkpt lat="47.11039" lon="5.5128">
        <ele>227.969727</ele>
        <time>2011-04-08T14:33:20Z</time>
      </trkpt>
      <trkpt lat="47.11009" lon="5.51346">
        <ele>230.85376</ele>
        <time>2011-04-08T14:33:31Z</time>
      </trkpt>
      <trkpt lat="47.10991" lon="5.5139">
        <ele>234.699097</ele>
        <time>2011-04-08T14:33:39Z</time>
      </trkpt>
      <trkpt lat="47.10989" lon="5.51395">
        <ele>234.699097</ele>
        <time>2011-04-08T14:33:40Z</time>
      </trkpt>
      <trkpt lat="47.10964" lon="5.51445">
        <ele>235.179688</ele>
        <time>2011-04-08T14:33:53Z</time>
      </trkpt>
      <trkpt lat="47.10926" lon="5.51497">
        <ele>234.218384</ele>
        <time>2011-04-08T14:34:08Z</time>
      </trkpt>
      <trkpt lat="47.10929" lon="5.515">
        <ele>234.218384</ele>
        <time>2011-04-08T14:34:13Z</time>
      </trkpt>
      <trkpt lat="47.10948" lon="5.51468">
        <ele>235.179688</ele>
        <time>2011-04-08T14:34:30Z</time>
      </trkpt>
      <trkpt lat="47.10957" lon="5.5145">
        <ele>234.699097</ele>
        <time>2011-04-08T14:34:38Z</time>
      </trkpt>
      <trkpt lat="47.10933" lon="5.51485">
        <ele>234.699097</ele>
        <time>2011-04-08T14:34:50Z</time>
      </trkpt>
      <trkpt lat="47.10921" lon="5.51498">
        <ele>234.218384</ele>
        <time>2011-04-08T14:34:54Z</time>
      </trkpt>
      <trkpt lat="47.10902" lon="5.51509">
        <ele>233.25708</ele>
        <time>2011-04-08T14:34:58Z</time>
      </trkpt>
      <trkpt lat="47.10816" lon="5.51526">
        <ele>231.334351</ele>
        <time>2011-04-08T14:35:09Z</time>
      </trkpt>
      <trkpt lat="47.10786" lon="5.51547">
        <ele>229.892334</ele>
        <time>2011-04-08T14:35:13Z</time>
      </trkpt>
      <trkpt lat="47.10717" lon="5.51638">
        <ele>226.527832</ele>
        <time>2011-04-08T14:35:24Z</time>
      </trkpt>
      <trkpt lat="47.10634" lon="5.51748">
        <ele>223.643799</ele>
        <time>2011-04-08T14:35:37Z</time>
      </trkpt>
      <trkpt lat="47.10583" lon="5.51803">
        <ele>220.279175</ele>
        <time>2011-04-08T14:35:46Z</time>
      </trkpt>
      <trkpt lat="47.1058" lon="5.51805">
        <ele>220.279175</ele>
        <time>2011-04-08T14:35:47Z</time>
      </trkpt>
      <trkpt lat="47.10578" lon="5.51808">
        <ele>219.798584</ele>
        <time>2011-04-08T14:35:56Z</time>
      </trkpt>
      <trkpt lat="47.10576" lon="5.51809">
        <ele>219.798584</ele>
        <time>2011-04-08T14:36:19Z</time>
      </trkpt>
      <trkpt lat="47.10572" lon="5.51809">
        <ele>219.798584</ele>
        <time>2011-04-08T14:36:22Z</time>
      </trkpt>
      <trkpt lat="47.10565" lon="5.51821">
        <ele>219.798584</ele>
        <time>2011-04-08T14:36:27Z</time>
      </trkpt>
      <trkpt lat="47.10552" lon="5.5185">
        <ele>218.83728</ele>
        <time>2011-04-08T14:36:34Z</time>
      </trkpt>
      <trkpt lat="47.10492" lon="5.51931">
        <ele>216.914673</ele>
        <time>2011-04-08T14:36:48Z</time>
      </trkpt>
      <trkpt lat="47.10447" lon="5.51981">
        <ele>216.914673</ele>
        <time>2011-04-08T14:36:58Z</time>
      </trkpt>
      <trkpt lat="47.10403" lon="5.52018">
        <ele>218.83728</ele>
        <time>2011-04-08T14:37:12Z</time>
      </trkpt>
      <trkpt lat="47.10359" lon="5.52038">
        <ele>222.201782</ele>
        <time>2011-04-08T14:37:25Z</time>
      </trkpt>
      <trkpt lat="47.10293" lon="5.52069">
        <ele>221.240601</ele>
        <time>2011-04-08T14:37:41Z</time>
      </trkpt>
      <trkpt lat="47.10197" lon="5.52111">
        <ele>218.356567</ele>
        <time>2011-04-08T14:37:55Z</time>
      </trkpt>
      <trkpt lat="47.10163" lon="5.52129">
        <ele>216.43396</ele>
        <time>2011-04-08T14:38:00Z</time>
      </trkpt>
      <trkpt lat="47.10142" lon="5.52149">
        <ele>214.991943</ele>
        <time>2011-04-08T14:38:04Z</time>
      </trkpt>
      <trkpt lat="47.10123" lon="5.52156">
        <ele>213.550049</ele>
        <time>2011-04-08T14:38:07Z</time>
      </trkpt>
      <trkpt lat="47.10109" lon="5.52155">
        <ele>213.069336</ele>
        <time>2011-04-08T14:38:09Z</time>
      </trkpt>
      <trkpt lat="47.10083" lon="5.52148">
        <ele>212.588623</ele>
        <time>2011-04-08T14:38:14Z</time>
      </trkpt>
      <trkpt lat="47.10061" lon="5.52155">
        <ele>212.108032</ele>
        <time>2011-04-08T14:38:18Z</time>
      </trkpt>
      <trkpt lat="47.09985" lon="5.52219">
        <ele>209.704834</ele>
        <time>2011-04-08T14:38:31Z</time>
      </trkpt>
      <trkpt lat="47.09944" lon="5.52278">
        <ele>213.550049</ele>
        <time>2011-04-08T14:38:45Z</time>
      </trkpt>
      <trkpt lat="47.09916" lon="5.52361">
        <ele>215.953247</ele>
        <time>2011-04-08T14:39:07Z</time>
      </trkpt>
      <trkpt lat="47.09908" lon="5.5237">
        <ele>215.953247</ele>
        <time>2011-04-08T14:39:10Z</time>
      </trkpt>
      <trkpt lat="47.09808" lon="5.52408">
        <ele>214.51123</ele>
        <time>2011-04-08T14:39:28Z</time>
      </trkpt>
      <trkpt lat="47.09731" lon="5.52406">
        <ele>212.588623</ele>
        <time>2011-04-08T14:39:40Z</time>
      </trkpt>
      <trkpt lat="47.09718" lon="5.524">
        <ele>211.146729</ele>
        <time>2011-04-08T14:39:43Z</time>
      </trkpt>
      <trkpt lat="47.09685" lon="5.5241">
        <ele>209.224121</ele>
        <time>2011-04-08T14:39:53Z</time>
      </trkpt>
      <trkpt lat="47.09663" lon="5.52428">
        <ele>206.820679</ele>
        <time>2011-04-08T14:40:00Z</time>
      </trkpt>
      <trkpt lat="47.09654" lon="5.52469">
        <ele>205.859497</ele>
        <time>2011-04-08T14:40:06Z</time>
      </trkpt>
      <trkpt lat="47.09599" lon="5.52602">
        <ele>203.93689</ele>
        <time>2011-04-08T14:40:25Z</time>
      </trkpt>
      <trkpt lat="47.09572" lon="5.52661">
        <ele>205.378784</ele>
        <time>2011-04-08T14:40:34Z</time>
      </trkpt>
      <trkpt lat="47.09557" lon="5.52676">
        <ele>207.301392</ele>
        <time>2011-04-08T14:40:38Z</time>
      </trkpt>
      <trkpt lat="47.09532" lon="5.52687">
        <ele>207.782104</ele>
        <time>2011-04-08T14:40:46Z</time>
      </trkpt>
      <trkpt lat="47.09516" lon="5.52648">
        <ele>205.378784</ele>
        <time>2011-04-08T14:40:55Z</time>
      </trkpt>
      <trkpt lat="47.09491" lon="5.52524">
        <ele>204.898071</ele>
        <time>2011-04-08T14:41:13Z</time>
      </trkpt>
      <trkpt lat="47.09464" lon="5.52396">
        <ele>204.41748</ele>
        <time>2011-04-08T14:41:32Z</time>
      </trkpt>
      <trkpt lat="47.09434" lon="5.52253">
        <ele>205.378784</ele>
        <time>2011-04-08T14:41:53Z</time>
      </trkpt>
      <trkpt lat="47.09402" lon="5.52087">
        <ele>204.898071</ele>
        <time>2011-04-08T14:42:15Z</time>
      </trkpt>
      <trkpt lat="47.094" lon="5.52072">
        <ele>204.898071</ele>
        <time>2011-04-08T14:42:17Z</time>
      </trkpt>
      <trkpt lat="47.09365" lon="5.51909">
        <ele>204.41748</ele>
        <time>2011-04-08T14:42:39Z</time>
      </trkpt>
      <trkpt lat="47.09346" lon="5.51811">
        <ele>204.898071</ele>
        <time>2011-04-08T14:42:52Z</time>
      </trkpt>
      <trkpt lat="47.09326" lon="5.51716">
        <ele>204.898071</ele>
        <time>2011-04-08T14:43:05Z</time>
      </trkpt>
      <trkpt lat="47.09299" lon="5.51585">
        <ele>204.41748</ele>
        <time>2011-04-08T14:43:23Z</time>
      </trkpt>
      <trkpt lat="47.09292" lon="5.51549">
        <ele>204.898071</ele>
        <time>2011-04-08T14:43:28Z</time>
      </trkpt>
      <trkpt lat="47.09282" lon="5.51391">
        <ele>204.41748</ele>
        <time>2011-04-08T14:43:48Z</time>
      </trkpt>
      <trkpt lat="47.09279" lon="5.51333">
        <ele>204.41748</ele>
        <time>2011-04-08T14:43:55Z</time>
      </trkpt>
      <trkpt lat="47.09283" lon="5.51222">
        <ele>204.898071</ele>
        <time>2011-04-08T14:44:09Z</time>
      </trkpt>
      <trkpt lat="47.09284" lon="5.51196">
        <ele>204.898071</ele>
        <time>2011-04-08T14:44:12Z</time>
      </trkpt>
      <trkpt lat="47.09294" lon="5.51025">
        <ele>204.898071</ele>
        <time>2011-04-08T14:44:34Z</time>
      </trkpt>
      <trkpt lat="47.09299" lon="5.50914">
        <ele>204.898071</ele>
        <time>2011-04-08T14:44:48Z</time>
      </trkpt>
      <trkpt lat="47.09299" lon="5.50907">
        <ele>204.898071</ele>
        <time>2011-04-08T14:44:49Z</time>
      </trkpt>
      <trkpt lat="47.09307" lon="5.50874">
        <ele>204.41748</ele>
        <time>2011-04-08T14:44:54Z</time>
      </trkpt>
      <trkpt lat="47.09305" lon="5.50843">
        <ele>204.41748</ele>
        <time>2011-04-08T14:44:59Z</time>
      </trkpt>
      <trkpt lat="47.09301" lon="5.50836">
        <ele>204.41748</ele>
        <time>2011-04-08T14:45:01Z</time>
      </trkpt>
      <trkpt lat="47.093" lon="5.50814">
        <ele>204.41748</ele>
        <time>2011-04-08T14:45:05Z</time>
      </trkpt>
      <trkpt lat="47.09313" lon="5.50626">
        <ele>204.898071</ele>
        <time>2011-04-08T14:45:30Z</time>
      </trkpt>
      <trkpt lat="47.09322" lon="5.50517">
        <ele>204.898071</ele>
        <time>2011-04-08T14:45:45Z</time>
      </trkpt>
      <trkpt lat="47.09321" lon="5.50481">
        <ele>204.41748</ele>
        <time>2011-04-08T14:45:50Z</time>
      </trkpt>
      <trkpt lat="47.09303" lon="5.50444">
        <ele>202.975464</ele>
        <time>2011-04-08T14:45:55Z</time>
      </trkpt>
      <trkpt lat="47.09302" lon="5.50395">
        <ele>203.456177</ele>
        <time>2011-04-08T14:46:03Z</time>
      </trkpt>
      <trkpt lat="47.09307" lon="5.50376">
        <ele>204.41748</ele>
        <time>2011-04-08T14:46:06Z</time>
      </trkpt>
      <trkpt lat="47.09319" lon="5.50323">
        <ele>204.41748</ele>
        <time>2011-04-08T14:46:14Z</time>
      </trkpt>
      <trkpt lat="47.09341" lon="5.503">
        <ele>206.340088</ele>
        <time>2011-04-08T14:46:21Z</time>
      </trkpt>
      <trkpt lat="47.09356" lon="5.503">
        <ele>205.859497</ele>
        <time>2011-04-08T14:46:26Z</time>
      </trkpt>
      <trkpt lat="47.09362" lon="5.50278">
        <ele>205.378784</ele>
        <time>2011-04-08T14:46:31Z</time>
      </trkpt>
      <trkpt lat="47.09363" lon="5.50226">
        <ele>203.93689</ele>
        <time>2011-04-08T14:46:38Z</time>
      </trkpt>
      <trkpt lat="47.09363" lon="5.50174">
        <ele>203.93689</ele>
        <time>2011-04-08T14:46:47Z</time>
      </trkpt>
      <trkpt lat="47.09363" lon="5.5016">
        <ele>203.93689</ele>
        <time>2011-04-08T14:46:50Z</time>
      </trkpt>
      <trkpt lat="47.0936" lon="5.50147">
        <ele>203.93689</ele>
        <time>2011-04-08T14:46:53Z</time>
      </trkpt>
      <trkpt lat="47.0936" lon="5.50134">
        <ele>203.93689</ele>
        <time>2011-04-08T14:46:55Z</time>
      </trkpt>
      <trkpt lat="47.09361" lon="5.50106">
        <ele>203.456177</ele>
        <time>2011-04-08T14:46:59Z</time>
      </trkpt>
      <trkpt lat="47.09371" lon="5.50029">
        <ele>203.456177</ele>
        <time>2011-04-08T14:47:13Z</time>
      </trkpt>
      <trkpt lat="47.09375" lon="5.50021">
        <ele>203.93689</ele>
        <time>2011-04-08T14:48:30Z</time>
      </trkpt>
      <trkpt lat="47.09378" lon="5.49949">
        <ele>204.898071</ele>
        <time>2011-04-08T14:48:46Z</time>
      </trkpt>
      <trkpt lat="47.09364" lon="5.49901">
        <ele>207.301392</ele>
        <time>2011-04-08T14:49:00Z</time>
      </trkpt>
      <trkpt lat="47.09363" lon="5.499">
        <ele>207.782104</ele>
        <time>2011-04-08T14:49:06Z</time>
      </trkpt>
      <trkpt lat="47.09355" lon="5.49903">
        <ele>207.301392</ele>
        <time>2011-04-08T14:49:10Z</time>
      </trkpt>
      <trkpt lat="47.09329" lon="5.4993">
        <ele>207.301392</ele>
        <time>2011-04-08T14:49:20Z</time>
      </trkpt>
      <trkpt lat="47.0931" lon="5.49922">
        <ele>206.820679</ele>
        <time>2011-04-08T14:49:24Z</time>
      </trkpt>
      <trkpt lat="47.0924" lon="5.49851">
        <ele>205.378784</ele>
        <time>2011-04-08T14:49:39Z</time>
      </trkpt>
      <trkpt lat="47.09163" lon="5.49783">
        <ele>204.898071</ele>
        <time>2011-04-08T14:49:56Z</time>
      </trkpt>
      <trkpt lat="47.09083" lon="5.49715">
        <ele>204.41748</ele>
        <time>2011-04-08T14:50:15Z</time>
      </trkpt>
      <trkpt lat="47.09071" lon="5.49701">
        <ele>204.898071</ele>
        <time>2011-04-08T14:50:18Z</time>
      </trkpt>
      <trkpt lat="47.08998" lon="5.49641">
        <ele>204.898071</ele>
        <time>2011-04-08T14:50:36Z</time>
      </trkpt>
      <trkpt lat="47.08994" lon="5.49638">
        <ele>204.41748</ele>
        <time>2011-04-08T14:50:45Z</time>
      </trkpt>
      <trkpt lat="47.0899" lon="5.49636">
        <ele>204.41748</ele>
        <time>2011-04-08T14:50:51Z</time>
      </trkpt>
      <trkpt lat="47.08986" lon="5.49644">
        <ele>204.898071</ele>
        <time>2011-04-08T14:50:55Z</time>
      </trkpt>
      <trkpt lat="47.08981" lon="5.49668">
        <ele>205.378784</ele>
        <time>2011-04-08T14:51:00Z</time>
      </trkpt>
      <trkpt lat="47.0896" lon="5.49751">
        <ele>204.41748</ele>
        <time>2011-04-08T14:51:13Z</time>
      </trkpt>
      <trkpt lat="47.08951" lon="5.49772">
        <ele>204.41748</ele>
        <time>2011-04-08T14:51:17Z</time>
      </trkpt>
      <trkpt lat="47.08935" lon="5.4981">
        <ele>203.93689</ele>
        <time>2011-04-08T14:51:25Z</time>
      </trkpt>
      <trkpt lat="47.08917" lon="5.49877">
        <ele>204.41748</ele>
        <time>2011-04-08T14:51:40Z</time>
      </trkpt>
      <trkpt lat="47.08915" lon="5.49883">
        <ele>204.898071</ele>
        <time>2011-04-08T14:51:44Z</time>
      </trkpt>
      <trkpt lat="47.08904" lon="5.49884">
        <ele>205.378784</ele>
        <time>2011-04-08T14:51:50Z</time>
      </trkpt>
      <trkpt lat="47.08849" lon="5.49844">
        <ele>204.898071</ele>
        <time>2011-04-08T14:52:10Z</time>
      </trkpt>
      <trkpt lat="47.08836" lon="5.49833">
        <ele>204.41748</ele>
        <time>2011-04-08T14:52:14Z</time>
      </trkpt>
      <trkpt lat="47.08825" lon="5.4984">
        <ele>203.93689</ele>
        <time>2011-04-08T14:52:18Z</time>
      </trkpt>
      <trkpt lat="47.08822" lon="5.49845">
        <ele>203.456177</ele>
        <time>2011-04-08T14:52:21Z</time>
      </trkpt>
      <trkpt lat="47.08813" lon="5.49852">
        <ele>203.456177</ele>
        <time>2011-04-08T14:52:26Z</time>
      </trkpt>
      <trkpt lat="47.08781" lon="5.49819">
        <ele>203.456177</ele>
        <time>2011-04-08T14:52:38Z</time>
      </trkpt>
      <trkpt lat="47.08763" lon="5.49723">
        <ele>203.456177</ele>
        <time>2011-04-08T14:52:55Z</time>
      </trkpt>
      <trkpt lat="47.08754" lon="5.49641">
        <ele>203.456177</ele>
        <time>2011-04-08T14:53:09Z</time>
      </trkpt>
      <trkpt lat="47.08733" lon="5.49577">
        <ele>205.378784</ele>
        <time>2011-04-08T14:53:23Z</time>
      </trkpt>
      <trkpt lat="47.08722" lon="5.49555">
        <ele>206.340088</ele>
        <time>2011-04-08T14:53:36Z</time>
      </trkpt>
      <trkpt lat="47.08713" lon="5.49509">
        <ele>206.340088</ele>
        <time>2011-04-08T14:53:45Z</time>
      </trkpt>
      <trkpt lat="47.08679" lon="5.49487">
        <ele>204.898071</ele>
        <time>2011-04-08T14:53:53Z</time>
      </trkpt>
      <trkpt lat="47.08665" lon="5.49528">
        <ele>205.859497</ele>
        <time>2011-04-08T14:53:59Z</time>
      </trkpt>
      <trkpt lat="47.08666" lon="5.49533">
        <ele>205.859497</ele>
        <time>2011-04-08T14:54:00Z</time>
      </trkpt>
      <trkpt lat="47.08667" lon="5.49542">
        <ele>205.859497</ele>
        <time>2011-04-08T14:54:02Z</time>
      </trkpt>
      <trkpt lat="47.08653" lon="5.49567">
        <ele>204.41748</ele>
        <time>2011-04-08T14:54:08Z</time>
      </trkpt>
      <trkpt lat="47.08548" lon="5.49629">
        <ele>202.975464</ele>
        <time>2011-04-08T14:54:28Z</time>
      </trkpt>
      <trkpt lat="47.08513" lon="5.49647">
        <ele>203.456177</ele>
        <time>2011-04-08T14:54:35Z</time>
      </trkpt>
      <trkpt lat="47.08487" lon="5.49641">
        <ele>203.456177</ele>
        <time>2011-04-08T14:54:40Z</time>
      </trkpt>
      <trkpt lat="47.08465" lon="5.49624">
        <ele>203.456177</ele>
        <time>2011-04-08T14:54:45Z</time>
      </trkpt>
      <trkpt lat="47.08419" lon="5.4954">
        <ele>203.456177</ele>
        <time>2011-04-08T14:54:59Z</time>
      </trkpt>
      <trkpt lat="47.08363" lon="5.49487">
        <ele>203.456177</ele>
        <time>2011-04-08T14:55:12Z</time>
      </trkpt>
      <trkpt lat="47.08259" lon="5.49426">
        <ele>203.456177</ele>
        <time>2011-04-08T14:55:34Z</time>
      </trkpt>
      <trkpt lat="47.08245" lon="5.49404">
        <ele>203.456177</ele>
        <time>2011-04-08T14:55:38Z</time>
      </trkpt>
      <trkpt lat="47.08239" lon="5.49375">
        <ele>203.456177</ele>
        <time>2011-04-08T14:55:46Z</time>
      </trkpt>
      <trkpt lat="47.08224" lon="5.49376">
        <ele>203.456177</ele>
        <time>2011-04-08T14:55:51Z</time>
      </trkpt>
      <trkpt lat="47.08152" lon="5.49411">
        <ele>203.456177</ele>
        <time>2011-04-08T14:56:08Z</time>
      </trkpt>
      <trkpt lat="47.08128" lon="5.49411">
        <ele>203.456177</ele>
        <time>2011-04-08T14:56:13Z</time>
      </trkpt>
      <trkpt lat="47.0811" lon="5.49422">
        <ele>203.456177</ele>
        <time>2011-04-08T14:56:17Z</time>
      </trkpt>
      <trkpt lat="47.0808" lon="5.49465">
        <ele>202.975464</ele>
        <time>2011-04-08T14:56:26Z</time>
      </trkpt>
      <trkpt lat="47.08072" lon="5.49474">
        <ele>202.494873</ele>
        <time>2011-04-08T14:56:28Z</time>
      </trkpt>
      <trkpt lat="47.08064" lon="5.4948">
        <ele>202.494873</ele>
        <time>2011-04-08T14:56:30Z</time>
      </trkpt>
      <trkpt lat="47.08042" lon="5.49484">
        <ele>202.494873</ele>
        <time>2011-04-08T14:56:35Z</time>
      </trkpt>
      <trkpt lat="47.07957" lon="5.49457">
        <ele>202.494873</ele>
        <time>2011-04-08T14:56:53Z</time>
      </trkpt>
      <trkpt lat="47.07855" lon="5.49409">
        <ele>202.975464</ele>
        <time>2011-04-08T14:57:14Z</time>
      </trkpt>
      <trkpt lat="47.0777" lon="5.49371">
        <ele>203.456177</ele>
        <time>2011-04-08T14:57:32Z</time>
      </trkpt>
      <trkpt lat="47.07748" lon="5.49391">
        <ele>204.41748</ele>
        <time>2011-04-08T14:57:39Z</time>
      </trkpt>
      <trkpt lat="47.07725" lon="5.49465">
        <ele>206.340088</ele>
        <time>2011-04-08T14:57:52Z</time>
      </trkpt>
      <trkpt lat="47.07685" lon="5.49556">
        <ele>209.224121</ele>
        <time>2011-04-08T14:58:11Z</time>
      </trkpt>
      <trkpt lat="47.07663" lon="5.49603">
        <ele>210.185425</ele>
        <time>2011-04-08T14:58:27Z</time>
      </trkpt>
      <trkpt lat="47.07661" lon="5.49603">
        <ele>209.224121</ele>
        <time>2011-04-08T14:59:37Z</time>
      </trkpt>
      <trkpt lat="47.07622" lon="5.49579">
        <ele>210.666016</ele>
        <time>2011-04-08T14:59:50Z</time>
      </trkpt>
      <trkpt lat="47.07566" lon="5.4953">
        <ele>213.069336</ele>
        <time>2011-04-08T15:00:07Z</time>
      </trkpt>
      <trkpt lat="47.07555" lon="5.49522">
        <ele>213.069336</ele>
        <time>2011-04-08T15:00:10Z</time>
      </trkpt>
      <trkpt lat="47.07484" lon="5.49471">
        <ele>210.666016</ele>
        <time>2011-04-08T15:00:28Z</time>
      </trkpt>
      <trkpt lat="47.07477" lon="5.49468">
        <ele>210.666016</ele>
        <time>2011-04-08T15:00:30Z</time>
      </trkpt>
      <trkpt lat="47.07453" lon="5.49426">
        <ele>210.185425</ele>
        <time>2011-04-08T15:00:41Z</time>
      </trkpt>
      <trkpt lat="47.07422" lon="5.49422">
        <ele>210.666016</ele>
        <time>2011-04-08T15:00:50Z</time>
      </trkpt>
      <trkpt lat="47.07428" lon="5.49466">
        <ele>211.146729</ele>
        <time>2011-04-08T15:00:58Z</time>
      </trkpt>
      <trkpt lat="47.07435" lon="5.49473">
        <ele>211.146729</ele>
        <time>2011-04-08T15:01:00Z</time>
      </trkpt>
      <trkpt lat="47.07435" lon="5.49493">
        <ele>211.627441</ele>
        <time>2011-04-08T15:01:04Z</time>
      </trkpt>
      <trkpt lat="47.07431" lon="5.49504">
        <ele>212.108032</ele>
        <time>2011-04-08T15:01:07Z</time>
      </trkpt>
      <trkpt lat="47.07431" lon="5.49508">
        <ele>212.108032</ele>
        <time>2011-04-08T15:01:20Z</time>
      </trkpt>
      <trkpt lat="47.07433" lon="5.49507">
        <ele>211.627441</ele>
        <time>2011-04-08T15:02:27Z</time>
      </trkpt>
      <trkpt lat="47.07433" lon="5.49508">
        <ele>211.627441</ele>
        <time>2011-04-08T15:02:49Z</time>
      </trkpt>
      <trkpt lat="47.07435" lon="5.49509">
        <ele>211.627441</ele>
        <time>2011-04-08T15:03:05Z</time>
      </trkpt>
      <trkpt lat="47.07435" lon="5.49506">
        <ele>212.108032</ele>
        <time>2011-04-08T15:03:23Z</time>
      </trkpt>
      <trkpt lat="47.07435" lon="5.49506">
        <ele>212.588623</ele>
        <time>2011-04-08T15:03:38Z</time>
      </trkpt>
    </trkseg>
  </trk>
</gpx>